<?xml version="1.0" encoding="UTF-8" standalone="no" ?>
<gpx xmlns="http://www.topografix.com/GPX/1/1" xmlns:xsi="http://www.w3.org/2001/XMLSchema-instance" xsi:schemaLocation="http://www.topografix.com/GPX/1/1 http://www.topografix.com/GPX/1/1/gpx.xsd" version="1.1" creator="VisuGPX - https://www.visugpx.com">
  <metadata>
    <name>SEUX - 13km</name>
    <desc><![CDATA[Walkmeter Randonnée 27 oct. 2013 09:07:26]]></desc>
  </metadata>
  <trk>
    <name><![CDATA[ch en s - seux]]></name>
    <trkseg>
      <trkpt lat="49.87362" lon="2.10672">
        <ele>105</ele>
        <time>2013-10-27T08:07:26Z</time>
      </trkpt>
      <trkpt lat="49.8736" lon="2.10672">
        <ele>105.3</ele>
        <time>2013-10-27T08:07:27Z</time>
      </trkpt>
      <trkpt lat="49.87359" lon="2.10669">
        <ele>106.3</ele>
        <time>2013-10-27T08:07:29Z</time>
      </trkpt>
      <trkpt lat="49.87348" lon="2.10656">
        <ele>114</ele>
        <time>2013-10-27T08:07:43Z</time>
      </trkpt>
      <trkpt lat="49.87339" lon="2.10641">
        <ele>113.6</ele>
        <time>2013-10-27T08:07:52Z</time>
      </trkpt>
      <trkpt lat="49.87327" lon="2.10626">
        <ele>113</ele>
        <time>2013-10-27T08:08:05Z</time>
      </trkpt>
      <trkpt lat="49.87315" lon="2.10612">
        <ele>112.4</ele>
        <time>2013-10-27T08:08:19Z</time>
      </trkpt>
      <trkpt lat="49.87306" lon="2.10596">
        <ele>111.9</ele>
        <time>2013-10-27T08:08:30Z</time>
      </trkpt>
      <trkpt lat="49.87293" lon="2.10587">
        <ele>111.5</ele>
        <time>2013-10-27T08:08:37Z</time>
      </trkpt>
      <trkpt lat="49.87281" lon="2.10575">
        <ele>111.1</ele>
        <time>2013-10-27T08:08:47Z</time>
      </trkpt>
      <trkpt lat="49.87269" lon="2.10564">
        <ele>110.6</ele>
        <time>2013-10-27T08:08:58Z</time>
      </trkpt>
      <trkpt lat="49.87257" lon="2.10553">
        <ele>110.2</ele>
        <time>2013-10-27T08:09:08Z</time>
      </trkpt>
      <trkpt lat="49.87247" lon="2.10536">
        <ele>109.6</ele>
        <time>2013-10-27T08:09:22Z</time>
      </trkpt>
      <trkpt lat="49.87236" lon="2.10523">
        <ele>109.2</ele>
        <time>2013-10-27T08:09:31Z</time>
      </trkpt>
      <trkpt lat="49.87225" lon="2.10509">
        <ele>108.7</ele>
        <time>2013-10-27T08:09:41Z</time>
      </trkpt>
      <trkpt lat="49.87211" lon="2.10504">
        <ele>108.3</ele>
        <time>2013-10-27T08:09:50Z</time>
      </trkpt>
      <trkpt lat="49.87201" lon="2.10521">
        <ele>107.8</ele>
        <time>2013-10-27T08:10:02Z</time>
      </trkpt>
      <trkpt lat="49.87189" lon="2.10535">
        <ele>107.5</ele>
        <time>2013-10-27T08:10:10Z</time>
      </trkpt>
      <trkpt lat="49.87177" lon="2.10545">
        <ele>107.2</ele>
        <time>2013-10-27T08:10:18Z</time>
      </trkpt>
      <trkpt lat="49.87163" lon="2.10548">
        <ele>108.2</ele>
        <time>2013-10-27T08:10:31Z</time>
      </trkpt>
      <trkpt lat="49.87151" lon="2.1054">
        <ele>109.7</ele>
        <time>2013-10-27T08:10:43Z</time>
      </trkpt>
      <trkpt lat="49.87137" lon="2.10535">
        <ele>110.8</ele>
        <time>2013-10-27T08:10:54Z</time>
      </trkpt>
      <trkpt lat="49.87123" lon="2.10528">
        <ele>111.7</ele>
        <time>2013-10-27T08:11:04Z</time>
      </trkpt>
      <trkpt lat="49.87109" lon="2.10523">
        <ele>113.6</ele>
        <time>2013-10-27T08:11:12Z</time>
      </trkpt>
      <trkpt lat="49.87096" lon="2.10514">
        <ele>115</ele>
        <time>2013-10-27T08:11:22Z</time>
      </trkpt>
      <trkpt lat="49.87083" lon="2.10505">
        <ele>113.8</ele>
        <time>2013-10-27T08:11:33Z</time>
      </trkpt>
      <trkpt lat="49.8707" lon="2.10497">
        <ele>112.9</ele>
        <time>2013-10-27T08:11:44Z</time>
      </trkpt>
      <trkpt lat="49.87057" lon="2.10488">
        <ele>112.6</ele>
        <time>2013-10-27T08:11:54Z</time>
      </trkpt>
      <trkpt lat="49.87044" lon="2.10479">
        <ele>112.3</ele>
        <time>2013-10-27T08:12:03Z</time>
      </trkpt>
      <trkpt lat="49.87032" lon="2.10471">
        <ele>111.9</ele>
        <time>2013-10-27T08:12:14Z</time>
      </trkpt>
      <trkpt lat="49.87017" lon="2.10472">
        <ele>111.6</ele>
        <time>2013-10-27T08:12:22Z</time>
      </trkpt>
      <trkpt lat="49.87003" lon="2.10472">
        <ele>111.3</ele>
        <time>2013-10-27T08:12:34Z</time>
      </trkpt>
      <trkpt lat="49.86988" lon="2.10478">
        <ele>111</ele>
        <time>2013-10-27T08:12:44Z</time>
      </trkpt>
      <trkpt lat="49.86974" lon="2.10473">
        <ele>110.6</ele>
        <time>2013-10-27T08:12:54Z</time>
      </trkpt>
      <trkpt lat="49.86961" lon="2.10474">
        <ele>110.2</ele>
        <time>2013-10-27T08:13:06Z</time>
      </trkpt>
      <trkpt lat="49.86947" lon="2.10473">
        <ele>109.3</ele>
        <time>2013-10-27T08:13:17Z</time>
      </trkpt>
      <trkpt lat="49.86933" lon="2.10468">
        <ele>108</ele>
        <time>2013-10-27T08:13:29Z</time>
      </trkpt>
      <trkpt lat="49.86919" lon="2.10466">
        <ele>107.8</ele>
        <time>2013-10-27T08:13:39Z</time>
      </trkpt>
      <trkpt lat="49.86905" lon="2.10464">
        <ele>107.2</ele>
        <time>2013-10-27T08:13:48Z</time>
      </trkpt>
      <trkpt lat="49.86893" lon="2.10454">
        <ele>109</ele>
        <time>2013-10-27T08:13:57Z</time>
      </trkpt>
      <trkpt lat="49.86879" lon="2.10447">
        <ele>110.4</ele>
        <time>2013-10-27T08:14:07Z</time>
      </trkpt>
      <trkpt lat="49.86864" lon="2.10439">
        <ele>111.8</ele>
        <time>2013-10-27T08:14:16Z</time>
      </trkpt>
      <trkpt lat="49.86851" lon="2.10428">
        <ele>113.8</ele>
        <time>2013-10-27T08:14:29Z</time>
      </trkpt>
      <trkpt lat="49.86834" lon="2.10415">
        <ele>116.1</ele>
        <time>2013-10-27T08:14:41Z</time>
      </trkpt>
      <trkpt lat="49.86822" lon="2.10404">
        <ele>116.4</ele>
        <time>2013-10-27T08:14:55Z</time>
      </trkpt>
      <trkpt lat="49.86809" lon="2.10396">
        <ele>116.6</ele>
        <time>2013-10-27T08:15:04Z</time>
      </trkpt>
      <trkpt lat="49.86795" lon="2.10389">
        <ele>116.8</ele>
        <time>2013-10-27T08:15:13Z</time>
      </trkpt>
      <trkpt lat="49.86779" lon="2.1038">
        <ele>116.9</ele>
        <time>2013-10-27T08:15:21Z</time>
      </trkpt>
      <trkpt lat="49.86764" lon="2.10372">
        <ele>117.3</ele>
        <time>2013-10-27T08:15:31Z</time>
      </trkpt>
      <trkpt lat="49.86753" lon="2.10356">
        <ele>117.9</ele>
        <time>2013-10-27T08:15:43Z</time>
      </trkpt>
      <trkpt lat="49.8674" lon="2.10355">
        <ele>118.7</ele>
        <time>2013-10-27T08:16:01Z</time>
      </trkpt>
      <trkpt lat="49.86727" lon="2.10348">
        <ele>119.2</ele>
        <time>2013-10-27T08:16:10Z</time>
      </trkpt>
      <trkpt lat="49.86713" lon="2.10338">
        <ele>119.5</ele>
        <time>2013-10-27T08:16:17Z</time>
      </trkpt>
      <trkpt lat="49.86696" lon="2.10325">
        <ele>120</ele>
        <time>2013-10-27T08:16:28Z</time>
      </trkpt>
      <trkpt lat="49.86682" lon="2.10317">
        <ele>122.4</ele>
        <time>2013-10-27T08:16:41Z</time>
      </trkpt>
      <trkpt lat="49.86668" lon="2.10312">
        <ele>120.6</ele>
        <time>2013-10-27T08:16:54Z</time>
      </trkpt>
      <trkpt lat="49.86655" lon="2.10304">
        <ele>121.8</ele>
        <time>2013-10-27T08:17:03Z</time>
      </trkpt>
      <trkpt lat="49.86642" lon="2.10297">
        <ele>123</ele>
        <time>2013-10-27T08:17:12Z</time>
      </trkpt>
      <trkpt lat="49.8663" lon="2.10287">
        <ele>123.8</ele>
        <time>2013-10-27T08:17:21Z</time>
      </trkpt>
      <trkpt lat="49.86617" lon="2.10273">
        <ele>124.7</ele>
        <time>2013-10-27T08:17:34Z</time>
      </trkpt>
      <trkpt lat="49.86604" lon="2.10265">
        <ele>125.6</ele>
        <time>2013-10-27T08:17:44Z</time>
      </trkpt>
      <trkpt lat="49.86594" lon="2.10251">
        <ele>125.6</ele>
        <time>2013-10-27T08:17:52Z</time>
      </trkpt>
      <trkpt lat="49.86587" lon="2.10232">
        <ele>123.9</ele>
        <time>2013-10-27T08:18:05Z</time>
      </trkpt>
      <trkpt lat="49.86578" lon="2.10214">
        <ele>122.5</ele>
        <time>2013-10-27T08:18:13Z</time>
      </trkpt>
      <trkpt lat="49.86566" lon="2.10205">
        <ele>120</ele>
        <time>2013-10-27T08:18:21Z</time>
      </trkpt>
      <trkpt lat="49.86559" lon="2.10224">
        <ele>116.4</ele>
        <time>2013-10-27T08:18:39Z</time>
      </trkpt>
      <trkpt lat="49.86552" lon="2.10243">
        <ele>116.9</ele>
        <time>2013-10-27T08:18:48Z</time>
      </trkpt>
      <trkpt lat="49.86547" lon="2.10262">
        <ele>117.8</ele>
        <time>2013-10-27T08:18:53Z</time>
      </trkpt>
      <trkpt lat="49.86543" lon="2.10283">
        <ele>119.6</ele>
        <time>2013-10-27T08:19:04Z</time>
      </trkpt>
      <trkpt lat="49.86536" lon="2.10301">
        <ele>117.5</ele>
        <time>2013-10-27T08:19:15Z</time>
      </trkpt>
      <trkpt lat="49.86528" lon="2.1032">
        <ele>118.9</ele>
        <time>2013-10-27T08:19:23Z</time>
      </trkpt>
      <trkpt lat="49.86519" lon="2.10338">
        <ele>120.9</ele>
        <time>2013-10-27T08:19:35Z</time>
      </trkpt>
      <trkpt lat="49.86508" lon="2.10351">
        <ele>120.7</ele>
        <time>2013-10-27T08:19:44Z</time>
      </trkpt>
      <trkpt lat="49.86494" lon="2.10341">
        <ele>120.4</ele>
        <time>2013-10-27T08:19:53Z</time>
      </trkpt>
      <trkpt lat="49.86485" lon="2.10324">
        <ele>120.2</ele>
        <time>2013-10-27T08:20:03Z</time>
      </trkpt>
      <trkpt lat="49.86472" lon="2.10313">
        <ele>120</ele>
        <time>2013-10-27T08:20:11Z</time>
      </trkpt>
      <trkpt lat="49.86461" lon="2.10299">
        <ele>119.7</ele>
        <time>2013-10-27T08:20:22Z</time>
      </trkpt>
      <trkpt lat="49.86448" lon="2.10288">
        <ele>119.5</ele>
        <time>2013-10-27T08:20:29Z</time>
      </trkpt>
      <trkpt lat="49.86435" lon="2.10279">
        <ele>119.3</ele>
        <time>2013-10-27T08:20:40Z</time>
      </trkpt>
      <trkpt lat="49.86423" lon="2.10267">
        <ele>118.9</ele>
        <time>2013-10-27T08:20:54Z</time>
      </trkpt>
      <trkpt lat="49.8641" lon="2.1026">
        <ele>118.6</ele>
        <time>2013-10-27T08:21:05Z</time>
      </trkpt>
      <trkpt lat="49.86396" lon="2.10263">
        <ele>118.4</ele>
        <time>2013-10-27T08:21:16Z</time>
      </trkpt>
      <trkpt lat="49.86382" lon="2.10268">
        <ele>118.1</ele>
        <time>2013-10-27T08:21:28Z</time>
      </trkpt>
      <trkpt lat="49.86367" lon="2.1027">
        <ele>117.6</ele>
        <time>2013-10-27T08:21:37Z</time>
      </trkpt>
      <trkpt lat="49.86353" lon="2.10275">
        <ele>117.1</ele>
        <time>2013-10-27T08:21:47Z</time>
      </trkpt>
      <trkpt lat="49.86339" lon="2.10279">
        <ele>116.6</ele>
        <time>2013-10-27T08:21:58Z</time>
      </trkpt>
      <trkpt lat="49.86326" lon="2.10288">
        <ele>116.1</ele>
        <time>2013-10-27T08:22:07Z</time>
      </trkpt>
      <trkpt lat="49.86313" lon="2.10297">
        <ele>115.6</ele>
        <time>2013-10-27T08:22:18Z</time>
      </trkpt>
      <trkpt lat="49.86305" lon="2.10311">
        <ele>115.3</ele>
        <time>2013-10-27T08:22:29Z</time>
      </trkpt>
      <trkpt lat="49.86315" lon="2.10328">
        <ele>118</ele>
        <time>2013-10-27T08:22:39Z</time>
      </trkpt>
      <trkpt lat="49.86312" lon="2.1035">
        <ele>115.4</ele>
        <time>2013-10-27T08:22:50Z</time>
      </trkpt>
      <trkpt lat="49.86306" lon="2.10369">
        <ele>114.2</ele>
        <time>2013-10-27T08:22:59Z</time>
      </trkpt>
      <trkpt lat="49.86303" lon="2.1039">
        <ele>115.3</ele>
        <time>2013-10-27T08:23:08Z</time>
      </trkpt>
      <trkpt lat="49.863" lon="2.10412">
        <ele>116.6</ele>
        <time>2013-10-27T08:23:19Z</time>
      </trkpt>
      <trkpt lat="49.86298" lon="2.10434">
        <ele>117.7</ele>
        <time>2013-10-27T08:23:30Z</time>
      </trkpt>
      <trkpt lat="49.86295" lon="2.10455">
        <ele>118.8</ele>
        <time>2013-10-27T08:23:40Z</time>
      </trkpt>
      <trkpt lat="49.86292" lon="2.10477">
        <ele>118.3</ele>
        <time>2013-10-27T08:23:49Z</time>
      </trkpt>
      <trkpt lat="49.8629" lon="2.10499">
        <ele>117.5</ele>
        <time>2013-10-27T08:23:59Z</time>
      </trkpt>
      <trkpt lat="49.86286" lon="2.10519">
        <ele>116.6</ele>
        <time>2013-10-27T08:24:07Z</time>
      </trkpt>
      <trkpt lat="49.8628" lon="2.1054">
        <ele>116.2</ele>
        <time>2013-10-27T08:24:18Z</time>
      </trkpt>
      <trkpt lat="49.86281" lon="2.10561">
        <ele>116.7</ele>
        <time>2013-10-27T08:24:31Z</time>
      </trkpt>
      <trkpt lat="49.86282" lon="2.10582">
        <ele>117.1</ele>
        <time>2013-10-27T08:24:41Z</time>
      </trkpt>
      <trkpt lat="49.86284" lon="2.10604">
        <ele>117.5</ele>
        <time>2013-10-27T08:24:50Z</time>
      </trkpt>
      <trkpt lat="49.86284" lon="2.10626">
        <ele>117.8</ele>
        <time>2013-10-27T08:24:59Z</time>
      </trkpt>
      <trkpt lat="49.86284" lon="2.10647">
        <ele>118.3</ele>
        <time>2013-10-27T08:25:10Z</time>
      </trkpt>
      <trkpt lat="49.86284" lon="2.10669">
        <ele>118.6</ele>
        <time>2013-10-27T08:25:19Z</time>
      </trkpt>
      <trkpt lat="49.86288" lon="2.1069">
        <ele>119.1</ele>
        <time>2013-10-27T08:25:29Z</time>
      </trkpt>
      <trkpt lat="49.86291" lon="2.1071">
        <ele>119.7</ele>
        <time>2013-10-27T08:25:39Z</time>
      </trkpt>
      <trkpt lat="49.86301" lon="2.10725">
        <ele>120</ele>
        <time>2013-10-27T08:25:44Z</time>
      </trkpt>
      <trkpt lat="49.86299" lon="2.10747">
        <ele>120.7</ele>
        <time>2013-10-27T08:25:55Z</time>
      </trkpt>
      <trkpt lat="49.86294" lon="2.10767">
        <ele>121.3</ele>
        <time>2013-10-27T08:26:05Z</time>
      </trkpt>
      <trkpt lat="49.86294" lon="2.1079">
        <ele>122</ele>
        <time>2013-10-27T08:26:16Z</time>
      </trkpt>
      <trkpt lat="49.86294" lon="2.10812">
        <ele>121.4</ele>
        <time>2013-10-27T08:26:26Z</time>
      </trkpt>
      <trkpt lat="49.86295" lon="2.10834">
        <ele>120.7</ele>
        <time>2013-10-27T08:26:38Z</time>
      </trkpt>
      <trkpt lat="49.86295" lon="2.10857">
        <ele>120</ele>
        <time>2013-10-27T08:26:48Z</time>
      </trkpt>
      <trkpt lat="49.86295" lon="2.10879">
        <ele>119.4</ele>
        <time>2013-10-27T08:26:58Z</time>
      </trkpt>
      <trkpt lat="49.86307" lon="2.10891">
        <ele>119.1</ele>
        <time>2013-10-27T08:27:04Z</time>
      </trkpt>
      <trkpt lat="49.86315" lon="2.10902">
        <ele>119.3</ele>
        <time>2013-10-27T08:27:08Z</time>
      </trkpt>
      <trkpt lat="49.86305" lon="2.10921">
        <ele>120</ele>
        <time>2013-10-27T08:27:17Z</time>
      </trkpt>
      <trkpt lat="49.863" lon="2.1094">
        <ele>120.9</ele>
        <time>2013-10-27T08:27:26Z</time>
      </trkpt>
      <trkpt lat="49.86301" lon="2.10963">
        <ele>121.9</ele>
        <time>2013-10-27T08:27:38Z</time>
      </trkpt>
      <trkpt lat="49.86301" lon="2.10984">
        <ele>120.2</ele>
        <time>2013-10-27T08:27:51Z</time>
      </trkpt>
      <trkpt lat="49.86309" lon="2.11003">
        <ele>119.3</ele>
        <time>2013-10-27T08:27:58Z</time>
      </trkpt>
      <trkpt lat="49.86308" lon="2.11025">
        <ele>119.6</ele>
        <time>2013-10-27T08:28:06Z</time>
      </trkpt>
      <trkpt lat="49.86311" lon="2.11047">
        <ele>120.5</ele>
        <time>2013-10-27T08:28:16Z</time>
      </trkpt>
      <trkpt lat="49.86308" lon="2.11069">
        <ele>121.4</ele>
        <time>2013-10-27T08:28:27Z</time>
      </trkpt>
      <trkpt lat="49.86311" lon="2.1109">
        <ele>121.4</ele>
        <time>2013-10-27T08:28:36Z</time>
      </trkpt>
      <trkpt lat="49.86316" lon="2.11109">
        <ele>119.6</ele>
        <time>2013-10-27T08:28:43Z</time>
      </trkpt>
      <trkpt lat="49.86311" lon="2.11131">
        <ele>117.4</ele>
        <time>2013-10-27T08:28:54Z</time>
      </trkpt>
      <trkpt lat="49.8631" lon="2.11152">
        <ele>115.8</ele>
        <time>2013-10-27T08:29:05Z</time>
      </trkpt>
      <trkpt lat="49.86308" lon="2.11174">
        <ele>114.3</ele>
        <time>2013-10-27T08:29:17Z</time>
      </trkpt>
      <trkpt lat="49.8631" lon="2.11196">
        <ele>113.3</ele>
        <time>2013-10-27T08:29:26Z</time>
      </trkpt>
      <trkpt lat="49.86312" lon="2.11218">
        <ele>113.3</ele>
        <time>2013-10-27T08:29:36Z</time>
      </trkpt>
      <trkpt lat="49.86311" lon="2.11241">
        <ele>113.8</ele>
        <time>2013-10-27T08:29:46Z</time>
      </trkpt>
      <trkpt lat="49.86309" lon="2.11263">
        <ele>113.4</ele>
        <time>2013-10-27T08:29:55Z</time>
      </trkpt>
      <trkpt lat="49.86313" lon="2.11283">
        <ele>112.3</ele>
        <time>2013-10-27T08:30:04Z</time>
      </trkpt>
      <trkpt lat="49.86315" lon="2.11305">
        <ele>111.1</ele>
        <time>2013-10-27T08:30:15Z</time>
      </trkpt>
      <trkpt lat="49.86315" lon="2.11328">
        <ele>109.7</ele>
        <time>2013-10-27T08:30:24Z</time>
      </trkpt>
      <trkpt lat="49.86313" lon="2.1135">
        <ele>107.3</ele>
        <time>2013-10-27T08:30:35Z</time>
      </trkpt>
      <trkpt lat="49.86312" lon="2.11371">
        <ele>110.4</ele>
        <time>2013-10-27T08:30:46Z</time>
      </trkpt>
      <trkpt lat="49.86314" lon="2.11392">
        <ele>113.3</ele>
        <time>2013-10-27T08:30:56Z</time>
      </trkpt>
      <trkpt lat="49.86319" lon="2.11413">
        <ele>114.6</ele>
        <time>2013-10-27T08:31:04Z</time>
      </trkpt>
      <trkpt lat="49.86317" lon="2.11435">
        <ele>113</ele>
        <time>2013-10-27T08:31:17Z</time>
      </trkpt>
      <trkpt lat="49.86317" lon="2.11457">
        <ele>111.5</ele>
        <time>2013-10-27T08:31:27Z</time>
      </trkpt>
      <trkpt lat="49.86317" lon="2.11478">
        <ele>109.7</ele>
        <time>2013-10-27T08:31:37Z</time>
      </trkpt>
      <trkpt lat="49.86319" lon="2.11499">
        <ele>107.9</ele>
        <time>2013-10-27T08:31:47Z</time>
      </trkpt>
      <trkpt lat="49.86319" lon="2.11522">
        <ele>107</ele>
        <time>2013-10-27T08:31:56Z</time>
      </trkpt>
      <trkpt lat="49.86321" lon="2.11544">
        <ele>107</ele>
        <time>2013-10-27T08:32:07Z</time>
      </trkpt>
      <trkpt lat="49.86318" lon="2.11566">
        <ele>109.5</ele>
        <time>2013-10-27T08:32:18Z</time>
      </trkpt>
      <trkpt lat="49.8632" lon="2.11588">
        <ele>112</ele>
        <time>2013-10-27T08:32:28Z</time>
      </trkpt>
      <trkpt lat="49.86324" lon="2.1161">
        <ele>113.9</ele>
        <time>2013-10-27T08:32:37Z</time>
      </trkpt>
      <trkpt lat="49.86325" lon="2.1163">
        <ele>115.6</ele>
        <time>2013-10-27T08:32:45Z</time>
      </trkpt>
      <trkpt lat="49.8633" lon="2.11653">
        <ele>115.2</ele>
        <time>2013-10-27T08:32:54Z</time>
      </trkpt>
      <trkpt lat="49.86332" lon="2.11674">
        <ele>118</ele>
        <time>2013-10-27T08:33:06Z</time>
      </trkpt>
      <trkpt lat="49.86332" lon="2.11696">
        <ele>116.1</ele>
        <time>2013-10-27T08:33:15Z</time>
      </trkpt>
      <trkpt lat="49.86333" lon="2.11718">
        <ele>115.5</ele>
        <time>2013-10-27T08:33:26Z</time>
      </trkpt>
      <trkpt lat="49.86337" lon="2.11739">
        <ele>117</ele>
        <time>2013-10-27T08:33:37Z</time>
      </trkpt>
      <trkpt lat="49.86335" lon="2.11761">
        <ele>118.3</ele>
        <time>2013-10-27T08:33:47Z</time>
      </trkpt>
      <trkpt lat="49.86335" lon="2.11783">
        <ele>119.5</ele>
        <time>2013-10-27T08:33:59Z</time>
      </trkpt>
      <trkpt lat="49.86337" lon="2.11804">
        <ele>120.6</ele>
        <time>2013-10-27T08:34:08Z</time>
      </trkpt>
      <trkpt lat="49.86338" lon="2.11826">
        <ele>122.1</ele>
        <time>2013-10-27T08:34:18Z</time>
      </trkpt>
      <trkpt lat="49.86339" lon="2.11848">
        <ele>123.9</ele>
        <time>2013-10-27T08:34:29Z</time>
      </trkpt>
      <trkpt lat="49.86341" lon="2.1187">
        <ele>124.3</ele>
        <time>2013-10-27T08:34:42Z</time>
      </trkpt>
      <trkpt lat="49.86336" lon="2.1189">
        <ele>122.2</ele>
        <time>2013-10-27T08:34:59Z</time>
      </trkpt>
      <trkpt lat="49.8633" lon="2.11911">
        <ele>121.1</ele>
        <time>2013-10-27T08:35:07Z</time>
      </trkpt>
      <trkpt lat="49.86323" lon="2.1193">
        <ele>121.8</ele>
        <time>2013-10-27T08:35:15Z</time>
      </trkpt>
      <trkpt lat="49.86316" lon="2.11949">
        <ele>122.9</ele>
        <time>2013-10-27T08:35:25Z</time>
      </trkpt>
      <trkpt lat="49.86306" lon="2.11967">
        <ele>124</ele>
        <time>2013-10-27T08:35:35Z</time>
      </trkpt>
      <trkpt lat="49.86302" lon="2.11982">
        <ele>123.3</ele>
        <time>2013-10-27T08:35:40Z</time>
      </trkpt>
      <trkpt lat="49.86308" lon="2.12008">
        <ele>123.2</ele>
        <time>2013-10-27T08:35:41Z</time>
      </trkpt>
      <trkpt lat="49.86306" lon="2.12016">
        <ele>123</ele>
        <time>2013-10-27T08:35:43Z</time>
      </trkpt>
      <trkpt lat="49.86302" lon="2.1202">
        <ele>122.4</ele>
        <time>2013-10-27T08:35:48Z</time>
      </trkpt>
      <trkpt lat="49.86299" lon="2.12018">
        <ele>122.1</ele>
        <time>2013-10-27T08:35:49Z</time>
      </trkpt>
      <trkpt lat="49.86286" lon="2.1202">
        <ele>120.8</ele>
        <time>2013-10-27T08:36:01Z</time>
      </trkpt>
      <trkpt lat="49.86276" lon="2.12036">
        <ele>120.2</ele>
        <time>2013-10-27T08:36:13Z</time>
      </trkpt>
      <trkpt lat="49.86266" lon="2.12052">
        <ele>119.5</ele>
        <time>2013-10-27T08:36:26Z</time>
      </trkpt>
      <trkpt lat="49.86248" lon="2.12081">
        <ele>114.5</ele>
        <time>2013-10-27T08:36:40Z</time>
      </trkpt>
      <trkpt lat="49.86248" lon="2.12081">
        <ele>114.5</ele>
        <time>2013-10-27T08:41:11Z</time>
      </trkpt>
      <trkpt lat="49.86238" lon="2.12094">
        <ele>110.1</ele>
        <time>2013-10-27T08:41:13Z</time>
      </trkpt>
      <trkpt lat="49.86227" lon="2.121">
        <ele>110.4</ele>
        <time>2013-10-27T08:41:25Z</time>
      </trkpt>
      <trkpt lat="49.86226" lon="2.12077">
        <ele>110.7</ele>
        <time>2013-10-27T08:41:37Z</time>
      </trkpt>
      <trkpt lat="49.86215" lon="2.12061">
        <ele>110.8</ele>
        <time>2013-10-27T08:41:42Z</time>
      </trkpt>
      <trkpt lat="49.8621" lon="2.12041">
        <ele>111.1</ele>
        <time>2013-10-27T08:41:55Z</time>
      </trkpt>
      <trkpt lat="49.86202" lon="2.12023">
        <ele>111.4</ele>
        <time>2013-10-27T08:42:07Z</time>
      </trkpt>
      <trkpt lat="49.86195" lon="2.12006">
        <ele>111.6</ele>
        <time>2013-10-27T08:42:16Z</time>
      </trkpt>
      <trkpt lat="49.86192" lon="2.11983">
        <ele>112</ele>
        <time>2013-10-27T08:42:29Z</time>
      </trkpt>
      <trkpt lat="49.86187" lon="2.11964">
        <ele>112.2</ele>
        <time>2013-10-27T08:42:37Z</time>
      </trkpt>
      <trkpt lat="49.86181" lon="2.11944">
        <ele>112.5</ele>
        <time>2013-10-27T08:42:48Z</time>
      </trkpt>
      <trkpt lat="49.86171" lon="2.11928">
        <ele>112.8</ele>
        <time>2013-10-27T08:43:01Z</time>
      </trkpt>
      <trkpt lat="49.86166" lon="2.11908">
        <ele>113</ele>
        <time>2013-10-27T08:43:10Z</time>
      </trkpt>
      <trkpt lat="49.86161" lon="2.11887">
        <ele>114</ele>
        <time>2013-10-27T08:43:21Z</time>
      </trkpt>
      <trkpt lat="49.86153" lon="2.11869">
        <ele>115.1</ele>
        <time>2013-10-27T08:43:33Z</time>
      </trkpt>
      <trkpt lat="49.86149" lon="2.11847">
        <ele>115.9</ele>
        <time>2013-10-27T08:43:43Z</time>
      </trkpt>
      <trkpt lat="49.86142" lon="2.11829">
        <ele>113.7</ele>
        <time>2013-10-27T08:43:53Z</time>
      </trkpt>
      <trkpt lat="49.86131" lon="2.11814">
        <ele>111.7</ele>
        <time>2013-10-27T08:44:04Z</time>
      </trkpt>
      <trkpt lat="49.86118" lon="2.11804">
        <ele>110.7</ele>
        <time>2013-10-27T08:44:12Z</time>
      </trkpt>
      <trkpt lat="49.86107" lon="2.11794">
        <ele>109.4</ele>
        <time>2013-10-27T08:44:25Z</time>
      </trkpt>
      <trkpt lat="49.86096" lon="2.11778">
        <ele>108.1</ele>
        <time>2013-10-27T08:44:37Z</time>
      </trkpt>
      <trkpt lat="49.86084" lon="2.11764">
        <ele>108.6</ele>
        <time>2013-10-27T08:44:48Z</time>
      </trkpt>
      <trkpt lat="49.86074" lon="2.11748">
        <ele>112.2</ele>
        <time>2013-10-27T08:45:02Z</time>
      </trkpt>
      <trkpt lat="49.86062" lon="2.11736">
        <ele>111.8</ele>
        <time>2013-10-27T08:45:12Z</time>
      </trkpt>
      <trkpt lat="49.8605" lon="2.11722">
        <ele>110.2</ele>
        <time>2013-10-27T08:45:21Z</time>
      </trkpt>
      <trkpt lat="49.86039" lon="2.11707">
        <ele>109.2</ele>
        <time>2013-10-27T08:45:32Z</time>
      </trkpt>
      <trkpt lat="49.86028" lon="2.11694">
        <ele>108.2</ele>
        <time>2013-10-27T08:45:43Z</time>
      </trkpt>
      <trkpt lat="49.86018" lon="2.11679">
        <ele>107.7</ele>
        <time>2013-10-27T08:45:50Z</time>
      </trkpt>
      <trkpt lat="49.86007" lon="2.11666">
        <ele>106.7</ele>
        <time>2013-10-27T08:46:01Z</time>
      </trkpt>
      <trkpt lat="49.85997" lon="2.11651">
        <ele>106.2</ele>
        <time>2013-10-27T08:46:11Z</time>
      </trkpt>
      <trkpt lat="49.85985" lon="2.11637">
        <ele>106.9</ele>
        <time>2013-10-27T08:46:21Z</time>
      </trkpt>
      <trkpt lat="49.85973" lon="2.11628">
        <ele>107.3</ele>
        <time>2013-10-27T08:46:25Z</time>
      </trkpt>
      <trkpt lat="49.85962" lon="2.11612">
        <ele>108.4</ele>
        <time>2013-10-27T08:46:40Z</time>
      </trkpt>
      <trkpt lat="49.85952" lon="2.11598">
        <ele>109.1</ele>
        <time>2013-10-27T08:46:49Z</time>
      </trkpt>
      <trkpt lat="49.85941" lon="2.11586">
        <ele>110.2</ele>
        <time>2013-10-27T08:47:03Z</time>
      </trkpt>
      <trkpt lat="49.8593" lon="2.11572">
        <ele>111</ele>
        <time>2013-10-27T08:47:19Z</time>
      </trkpt>
      <trkpt lat="49.85918" lon="2.11561">
        <ele>111.6</ele>
        <time>2013-10-27T08:47:29Z</time>
      </trkpt>
      <trkpt lat="49.85907" lon="2.11546">
        <ele>112.2</ele>
        <time>2013-10-27T08:47:41Z</time>
      </trkpt>
      <trkpt lat="49.85895" lon="2.11535">
        <ele>112.7</ele>
        <time>2013-10-27T08:47:50Z</time>
      </trkpt>
      <trkpt lat="49.85886" lon="2.11517">
        <ele>112.2</ele>
        <time>2013-10-27T08:48:01Z</time>
      </trkpt>
      <trkpt lat="49.85877" lon="2.11502">
        <ele>110.5</ele>
        <time>2013-10-27T08:48:11Z</time>
      </trkpt>
      <trkpt lat="49.85867" lon="2.11486">
        <ele>108.9</ele>
        <time>2013-10-27T08:48:20Z</time>
      </trkpt>
      <trkpt lat="49.85859" lon="2.11468">
        <ele>107</ele>
        <time>2013-10-27T08:48:30Z</time>
      </trkpt>
      <trkpt lat="49.85858" lon="2.11445">
        <ele>108.8</ele>
        <time>2013-10-27T08:48:40Z</time>
      </trkpt>
      <trkpt lat="49.85854" lon="2.11424">
        <ele>110.2</ele>
        <time>2013-10-27T08:48:49Z</time>
      </trkpt>
      <trkpt lat="49.8585" lon="2.11404">
        <ele>111.1</ele>
        <time>2013-10-27T08:48:59Z</time>
      </trkpt>
      <trkpt lat="49.85849" lon="2.11382">
        <ele>112.1</ele>
        <time>2013-10-27T08:49:11Z</time>
      </trkpt>
      <trkpt lat="49.85841" lon="2.11365">
        <ele>113.2</ele>
        <time>2013-10-27T08:49:22Z</time>
      </trkpt>
      <trkpt lat="49.85835" lon="2.11345">
        <ele>114.4</ele>
        <time>2013-10-27T08:49:32Z</time>
      </trkpt>
      <trkpt lat="49.85833" lon="2.11324">
        <ele>115.5</ele>
        <time>2013-10-27T08:49:41Z</time>
      </trkpt>
      <trkpt lat="49.85832" lon="2.11303">
        <ele>117.1</ele>
        <time>2013-10-27T08:49:54Z</time>
      </trkpt>
      <trkpt lat="49.85829" lon="2.11281">
        <ele>118</ele>
        <time>2013-10-27T08:50:07Z</time>
      </trkpt>
      <trkpt lat="49.85827" lon="2.11261">
        <ele>117.1</ele>
        <time>2013-10-27T08:50:16Z</time>
      </trkpt>
      <trkpt lat="49.85821" lon="2.11241">
        <ele>118.2</ele>
        <time>2013-10-27T08:50:29Z</time>
      </trkpt>
      <trkpt lat="49.85819" lon="2.11219">
        <ele>119.3</ele>
        <time>2013-10-27T08:50:39Z</time>
      </trkpt>
      <trkpt lat="49.85821" lon="2.11204">
        <ele>119.7</ele>
        <time>2013-10-27T08:50:47Z</time>
      </trkpt>
      <trkpt lat="49.85813" lon="2.11185">
        <ele>117.2</ele>
        <time>2013-10-27T08:51:02Z</time>
      </trkpt>
      <trkpt lat="49.85803" lon="2.11169">
        <ele>117.7</ele>
        <time>2013-10-27T08:51:15Z</time>
      </trkpt>
      <trkpt lat="49.8579" lon="2.11167">
        <ele>118</ele>
        <time>2013-10-27T08:51:22Z</time>
      </trkpt>
      <trkpt lat="49.85776" lon="2.11167">
        <ele>118.3</ele>
        <time>2013-10-27T08:51:29Z</time>
      </trkpt>
      <trkpt lat="49.85762" lon="2.1116">
        <ele>118.7</ele>
        <time>2013-10-27T08:51:40Z</time>
      </trkpt>
      <trkpt lat="49.85752" lon="2.11145">
        <ele>119.2</ele>
        <time>2013-10-27T08:51:52Z</time>
      </trkpt>
      <trkpt lat="49.85741" lon="2.11134">
        <ele>119.7</ele>
        <time>2013-10-27T08:52:05Z</time>
      </trkpt>
      <trkpt lat="49.85727" lon="2.11127">
        <ele>120.2</ele>
        <time>2013-10-27T08:52:16Z</time>
      </trkpt>
      <trkpt lat="49.85713" lon="2.11119">
        <ele>120.8</ele>
        <time>2013-10-27T08:52:26Z</time>
      </trkpt>
      <trkpt lat="49.85699" lon="2.11113">
        <ele>121.4</ele>
        <time>2013-10-27T08:52:36Z</time>
      </trkpt>
      <trkpt lat="49.85685" lon="2.11106">
        <ele>122</ele>
        <time>2013-10-27T08:52:47Z</time>
      </trkpt>
      <trkpt lat="49.85672" lon="2.11099">
        <ele>122.8</ele>
        <time>2013-10-27T08:52:59Z</time>
      </trkpt>
      <trkpt lat="49.85658" lon="2.11092">
        <ele>122.1</ele>
        <time>2013-10-27T08:53:11Z</time>
      </trkpt>
      <trkpt lat="49.85646" lon="2.11083">
        <ele>120.8</ele>
        <time>2013-10-27T08:53:23Z</time>
      </trkpt>
      <trkpt lat="49.85633" lon="2.11073">
        <ele>119.4</ele>
        <time>2013-10-27T08:53:35Z</time>
      </trkpt>
      <trkpt lat="49.85619" lon="2.11067">
        <ele>117.9</ele>
        <time>2013-10-27T08:53:45Z</time>
      </trkpt>
      <trkpt lat="49.85607" lon="2.11058">
        <ele>116.2</ele>
        <time>2013-10-27T08:53:54Z</time>
      </trkpt>
      <trkpt lat="49.85593" lon="2.11052">
        <ele>117.7</ele>
        <time>2013-10-27T08:54:06Z</time>
      </trkpt>
      <trkpt lat="49.8558" lon="2.11059">
        <ele>119.1</ele>
        <time>2013-10-27T08:54:17Z</time>
      </trkpt>
      <trkpt lat="49.85576" lon="2.11078">
        <ele>119.5</ele>
        <time>2013-10-27T08:54:26Z</time>
      </trkpt>
      <trkpt lat="49.85571" lon="2.111">
        <ele>119.9</ele>
        <time>2013-10-27T08:54:37Z</time>
      </trkpt>
      <trkpt lat="49.85567" lon="2.11122">
        <ele>120.5</ele>
        <time>2013-10-27T08:54:50Z</time>
      </trkpt>
      <trkpt lat="49.85563" lon="2.11143">
        <ele>120.9</ele>
        <time>2013-10-27T08:55:00Z</time>
      </trkpt>
      <trkpt lat="49.85559" lon="2.11163">
        <ele>121.3</ele>
        <time>2013-10-27T08:55:11Z</time>
      </trkpt>
      <trkpt lat="49.85555" lon="2.11183">
        <ele>121.7</ele>
        <time>2013-10-27T08:55:22Z</time>
      </trkpt>
      <trkpt lat="49.85551" lon="2.11204">
        <ele>122</ele>
        <time>2013-10-27T08:55:33Z</time>
      </trkpt>
      <trkpt lat="49.85547" lon="2.11224">
        <ele>122</ele>
        <time>2013-10-27T08:55:43Z</time>
      </trkpt>
      <trkpt lat="49.85543" lon="2.11245">
        <ele>122</ele>
        <time>2013-10-27T08:55:54Z</time>
      </trkpt>
      <trkpt lat="49.85538" lon="2.11266">
        <ele>122</ele>
        <time>2013-10-27T08:56:03Z</time>
      </trkpt>
      <trkpt lat="49.85533" lon="2.11285">
        <ele>122</ele>
        <time>2013-10-27T08:56:13Z</time>
      </trkpt>
      <trkpt lat="49.8553" lon="2.11299">
        <ele>121.8</ele>
        <time>2013-10-27T08:56:21Z</time>
      </trkpt>
      <trkpt lat="49.85524" lon="2.1133">
        <ele>120</ele>
        <time>2013-10-27T08:56:36Z</time>
      </trkpt>
      <trkpt lat="49.85523" lon="2.11332">
        <ele>120</ele>
        <time>2013-10-27T08:56:37Z</time>
      </trkpt>
      <trkpt lat="49.8552" lon="2.11353">
        <ele>119.5</ele>
        <time>2013-10-27T08:56:48Z</time>
      </trkpt>
      <trkpt lat="49.85517" lon="2.11375">
        <ele>119.1</ele>
        <time>2013-10-27T08:56:59Z</time>
      </trkpt>
      <trkpt lat="49.85513" lon="2.11396">
        <ele>118.6</ele>
        <time>2013-10-27T08:57:12Z</time>
      </trkpt>
      <trkpt lat="49.85507" lon="2.11417">
        <ele>118.1</ele>
        <time>2013-10-27T08:57:23Z</time>
      </trkpt>
      <trkpt lat="49.85502" lon="2.11437">
        <ele>117.7</ele>
        <time>2013-10-27T08:57:34Z</time>
      </trkpt>
      <trkpt lat="49.85501" lon="2.11461">
        <ele>117.3</ele>
        <time>2013-10-27T08:57:42Z</time>
      </trkpt>
      <trkpt lat="49.85498" lon="2.11483">
        <ele>115.4</ele>
        <time>2013-10-27T08:57:51Z</time>
      </trkpt>
      <trkpt lat="49.8549" lon="2.11506">
        <ele>110.4</ele>
        <time>2013-10-27T08:58:00Z</time>
      </trkpt>
      <trkpt lat="49.85486" lon="2.11527">
        <ele>108.8</ele>
        <time>2013-10-27T08:58:04Z</time>
      </trkpt>
      <trkpt lat="49.85483" lon="2.11549">
        <ele>105.4</ele>
        <time>2013-10-27T08:58:17Z</time>
      </trkpt>
      <trkpt lat="49.85479" lon="2.11569">
        <ele>101.9</ele>
        <time>2013-10-27T08:58:27Z</time>
      </trkpt>
      <trkpt lat="49.85468" lon="2.11583">
        <ele>98.4</ele>
        <time>2013-10-27T08:58:36Z</time>
      </trkpt>
      <trkpt lat="49.8546" lon="2.116">
        <ele>93.5</ele>
        <time>2013-10-27T08:58:50Z</time>
      </trkpt>
      <trkpt lat="49.85457" lon="2.11622">
        <ele>90.7</ele>
        <time>2013-10-27T08:58:59Z</time>
      </trkpt>
      <trkpt lat="49.85454" lon="2.11642">
        <ele>93.1</ele>
        <time>2013-10-27T08:59:10Z</time>
      </trkpt>
      <trkpt lat="49.85451" lon="2.11664">
        <ele>93.8</ele>
        <time>2013-10-27T08:59:19Z</time>
      </trkpt>
      <trkpt lat="49.85452" lon="2.11687">
        <ele>93.4</ele>
        <time>2013-10-27T08:59:26Z</time>
      </trkpt>
      <trkpt lat="49.85453" lon="2.11708">
        <ele>93</ele>
        <time>2013-10-27T08:59:35Z</time>
      </trkpt>
      <trkpt lat="49.85448" lon="2.11729">
        <ele>99.5</ele>
        <time>2013-10-27T08:59:52Z</time>
      </trkpt>
      <trkpt lat="49.85439" lon="2.11745">
        <ele>101.6</ele>
        <time>2013-10-27T09:00:03Z</time>
      </trkpt>
      <trkpt lat="49.85431" lon="2.11757">
        <ele>104.7</ele>
        <time>2013-10-27T09:00:13Z</time>
      </trkpt>
      <trkpt lat="49.85424" lon="2.11776">
        <ele>105.3</ele>
        <time>2013-10-27T09:00:24Z</time>
      </trkpt>
      <trkpt lat="49.85422" lon="2.11797">
        <ele>105.5</ele>
        <time>2013-10-27T09:00:32Z</time>
      </trkpt>
      <trkpt lat="49.85422" lon="2.11818">
        <ele>105.9</ele>
        <time>2013-10-27T09:00:44Z</time>
      </trkpt>
      <trkpt lat="49.85421" lon="2.1184">
        <ele>106.7</ele>
        <time>2013-10-27T09:00:51Z</time>
      </trkpt>
      <trkpt lat="49.85417" lon="2.11861">
        <ele>107.4</ele>
        <time>2013-10-27T09:01:00Z</time>
      </trkpt>
      <trkpt lat="49.85412" lon="2.11881">
        <ele>103.6</ele>
        <time>2013-10-27T09:01:09Z</time>
      </trkpt>
      <trkpt lat="49.85409" lon="2.11892">
        <ele>103.6</ele>
        <time>2013-10-27T09:01:16Z</time>
      </trkpt>
      <trkpt lat="49.85416" lon="2.11914">
        <ele>104.3</ele>
        <time>2013-10-27T09:01:22Z</time>
      </trkpt>
      <trkpt lat="49.85408" lon="2.11931">
        <ele>105.7</ele>
        <time>2013-10-27T09:01:36Z</time>
      </trkpt>
      <trkpt lat="49.854" lon="2.1195">
        <ele>107</ele>
        <time>2013-10-27T09:01:49Z</time>
      </trkpt>
      <trkpt lat="49.85392" lon="2.11969">
        <ele>108.8</ele>
        <time>2013-10-27T09:02:03Z</time>
      </trkpt>
      <trkpt lat="49.85389" lon="2.11991">
        <ele>110.5</ele>
        <time>2013-10-27T09:02:10Z</time>
      </trkpt>
      <trkpt lat="49.85387" lon="2.12012">
        <ele>110.8</ele>
        <time>2013-10-27T09:02:18Z</time>
      </trkpt>
      <trkpt lat="49.85389" lon="2.12035">
        <ele>112</ele>
        <time>2013-10-27T09:02:27Z</time>
      </trkpt>
      <trkpt lat="49.85395" lon="2.12055">
        <ele>112</ele>
        <time>2013-10-27T09:02:34Z</time>
      </trkpt>
      <trkpt lat="49.85383" lon="2.12068">
        <ele>112</ele>
        <time>2013-10-27T09:02:47Z</time>
      </trkpt>
      <trkpt lat="49.85369" lon="2.12098">
        <ele>115.9</ele>
        <time>2013-10-27T09:02:59Z</time>
      </trkpt>
      <trkpt lat="49.85369" lon="2.12098">
        <ele>115.9</ele>
        <time>2013-10-27T09:05:57Z</time>
      </trkpt>
      <trkpt lat="49.85367" lon="2.12116">
        <ele>124.8</ele>
        <time>2013-10-27T09:05:58Z</time>
      </trkpt>
      <trkpt lat="49.85381" lon="2.12121">
        <ele>125.3</ele>
        <time>2013-10-27T09:06:15Z</time>
      </trkpt>
      <trkpt lat="49.85395" lon="2.12127">
        <ele>125.6</ele>
        <time>2013-10-27T09:06:26Z</time>
      </trkpt>
      <trkpt lat="49.85407" lon="2.1214">
        <ele>126.1</ele>
        <time>2013-10-27T09:06:41Z</time>
      </trkpt>
      <trkpt lat="49.8542" lon="2.12152">
        <ele>126.4</ele>
        <time>2013-10-27T09:06:50Z</time>
      </trkpt>
      <trkpt lat="49.85433" lon="2.12161">
        <ele>126.7</ele>
        <time>2013-10-27T09:07:02Z</time>
      </trkpt>
      <trkpt lat="49.85446" lon="2.1217">
        <ele>126.9</ele>
        <time>2013-10-27T09:07:11Z</time>
      </trkpt>
      <trkpt lat="49.85459" lon="2.12181">
        <ele>124.7</ele>
        <time>2013-10-27T09:07:22Z</time>
      </trkpt>
      <trkpt lat="49.85473" lon="2.12188">
        <ele>124.3</ele>
        <time>2013-10-27T09:07:31Z</time>
      </trkpt>
      <trkpt lat="49.85484" lon="2.122">
        <ele>124.9</ele>
        <time>2013-10-27T09:07:42Z</time>
      </trkpt>
      <trkpt lat="49.85497" lon="2.1221">
        <ele>125.5</ele>
        <time>2013-10-27T09:07:52Z</time>
      </trkpt>
      <trkpt lat="49.85506" lon="2.12225">
        <ele>126.1</ele>
        <time>2013-10-27T09:08:02Z</time>
      </trkpt>
      <trkpt lat="49.8552" lon="2.12233">
        <ele>126.6</ele>
        <time>2013-10-27T09:08:12Z</time>
      </trkpt>
      <trkpt lat="49.85534" lon="2.12237">
        <ele>127</ele>
        <time>2013-10-27T09:08:20Z</time>
      </trkpt>
      <trkpt lat="49.85545" lon="2.12251">
        <ele>127.7</ele>
        <time>2013-10-27T09:08:32Z</time>
      </trkpt>
      <trkpt lat="49.85558" lon="2.1226">
        <ele>128.2</ele>
        <time>2013-10-27T09:08:43Z</time>
      </trkpt>
      <trkpt lat="49.85571" lon="2.12269">
        <ele>128.6</ele>
        <time>2013-10-27T09:08:52Z</time>
      </trkpt>
      <trkpt lat="49.85584" lon="2.12277">
        <ele>129.2</ele>
        <time>2013-10-27T09:09:03Z</time>
      </trkpt>
      <trkpt lat="49.85595" lon="2.1229">
        <ele>129.6</ele>
        <time>2013-10-27T09:09:12Z</time>
      </trkpt>
      <trkpt lat="49.85606" lon="2.12303">
        <ele>129.8</ele>
        <time>2013-10-27T09:09:24Z</time>
      </trkpt>
      <trkpt lat="49.85619" lon="2.1231">
        <ele>129.2</ele>
        <time>2013-10-27T09:09:33Z</time>
      </trkpt>
      <trkpt lat="49.85629" lon="2.12326">
        <ele>128.6</ele>
        <time>2013-10-27T09:09:43Z</time>
      </trkpt>
      <trkpt lat="49.85641" lon="2.1234">
        <ele>128.1</ele>
        <time>2013-10-27T09:09:52Z</time>
      </trkpt>
      <trkpt lat="49.85653" lon="2.12354">
        <ele>127.5</ele>
        <time>2013-10-27T09:10:02Z</time>
      </trkpt>
      <trkpt lat="49.85657" lon="2.12374">
        <ele>126.8</ele>
        <time>2013-10-27T09:10:13Z</time>
      </trkpt>
      <trkpt lat="49.8565" lon="2.12394">
        <ele>126.1</ele>
        <time>2013-10-27T09:10:24Z</time>
      </trkpt>
      <trkpt lat="49.85647" lon="2.12416">
        <ele>124.3</ele>
        <time>2013-10-27T09:10:36Z</time>
      </trkpt>
      <trkpt lat="49.85641" lon="2.12435">
        <ele>123</ele>
        <time>2013-10-27T09:10:47Z</time>
      </trkpt>
      <trkpt lat="49.85633" lon="2.12454">
        <ele>122.6</ele>
        <time>2013-10-27T09:10:58Z</time>
      </trkpt>
      <trkpt lat="49.85626" lon="2.12473">
        <ele>122.1</ele>
        <time>2013-10-27T09:11:08Z</time>
      </trkpt>
      <trkpt lat="49.85623" lon="2.12494">
        <ele>121</ele>
        <time>2013-10-27T09:11:19Z</time>
      </trkpt>
      <trkpt lat="49.85614" lon="2.12511">
        <ele>120.6</ele>
        <time>2013-10-27T09:11:29Z</time>
      </trkpt>
      <trkpt lat="49.85609" lon="2.12532">
        <ele>120</ele>
        <time>2013-10-27T09:11:39Z</time>
      </trkpt>
      <trkpt lat="49.85604" lon="2.12552">
        <ele>119.4</ele>
        <time>2013-10-27T09:11:51Z</time>
      </trkpt>
      <trkpt lat="49.85597" lon="2.1257">
        <ele>118.8</ele>
        <time>2013-10-27T09:12:01Z</time>
      </trkpt>
      <trkpt lat="49.85591" lon="2.1259">
        <ele>118.3</ele>
        <time>2013-10-27T09:12:11Z</time>
      </trkpt>
      <trkpt lat="49.85587" lon="2.1261">
        <ele>116.9</ele>
        <time>2013-10-27T09:12:21Z</time>
      </trkpt>
      <trkpt lat="49.85581" lon="2.1263">
        <ele>114.6</ele>
        <time>2013-10-27T09:12:31Z</time>
      </trkpt>
      <trkpt lat="49.85571" lon="2.12645">
        <ele>112.2</ele>
        <time>2013-10-27T09:12:39Z</time>
      </trkpt>
      <trkpt lat="49.85565" lon="2.12664">
        <ele>109.5</ele>
        <time>2013-10-27T09:12:48Z</time>
      </trkpt>
      <trkpt lat="49.85559" lon="2.12684">
        <ele>110.8</ele>
        <time>2013-10-27T09:13:00Z</time>
      </trkpt>
      <trkpt lat="49.85554" lon="2.12704">
        <ele>111.9</ele>
        <time>2013-10-27T09:13:10Z</time>
      </trkpt>
      <trkpt lat="49.85548" lon="2.12724">
        <ele>113.1</ele>
        <time>2013-10-27T09:13:21Z</time>
      </trkpt>
      <trkpt lat="49.85541" lon="2.12743">
        <ele>114.1</ele>
        <time>2013-10-27T09:13:31Z</time>
      </trkpt>
      <trkpt lat="49.85533" lon="2.12761">
        <ele>114.5</ele>
        <time>2013-10-27T09:13:42Z</time>
      </trkpt>
      <trkpt lat="49.85528" lon="2.12783">
        <ele>114.8</ele>
        <time>2013-10-27T09:13:52Z</time>
      </trkpt>
      <trkpt lat="49.85523" lon="2.12805">
        <ele>115.2</ele>
        <time>2013-10-27T09:14:02Z</time>
      </trkpt>
      <trkpt lat="49.85516" lon="2.12825">
        <ele>115.5</ele>
        <time>2013-10-27T09:14:11Z</time>
      </trkpt>
      <trkpt lat="49.8551" lon="2.12845">
        <ele>115.9</ele>
        <time>2013-10-27T09:14:22Z</time>
      </trkpt>
      <trkpt lat="49.85505" lon="2.12865">
        <ele>116.3</ele>
        <time>2013-10-27T09:14:33Z</time>
      </trkpt>
      <trkpt lat="49.85498" lon="2.12883">
        <ele>116.8</ele>
        <time>2013-10-27T09:14:45Z</time>
      </trkpt>
      <trkpt lat="49.85493" lon="2.12905">
        <ele>117.3</ele>
        <time>2013-10-27T09:14:55Z</time>
      </trkpt>
      <trkpt lat="49.85487" lon="2.12925">
        <ele>118</ele>
        <time>2013-10-27T09:15:05Z</time>
      </trkpt>
      <trkpt lat="49.85483" lon="2.12946">
        <ele>118.6</ele>
        <time>2013-10-27T09:15:15Z</time>
      </trkpt>
      <trkpt lat="49.85477" lon="2.12966">
        <ele>119.3</ele>
        <time>2013-10-27T09:15:25Z</time>
      </trkpt>
      <trkpt lat="49.85471" lon="2.12986">
        <ele>119.9</ele>
        <time>2013-10-27T09:15:34Z</time>
      </trkpt>
      <trkpt lat="49.85466" lon="2.13006">
        <ele>120.8</ele>
        <time>2013-10-27T09:15:45Z</time>
      </trkpt>
      <trkpt lat="49.8546" lon="2.13026">
        <ele>121.5</ele>
        <time>2013-10-27T09:15:54Z</time>
      </trkpt>
      <trkpt lat="49.85454" lon="2.13045">
        <ele>122.4</ele>
        <time>2013-10-27T09:16:05Z</time>
      </trkpt>
      <trkpt lat="49.85447" lon="2.13064">
        <ele>123.2</ele>
        <time>2013-10-27T09:16:16Z</time>
      </trkpt>
      <trkpt lat="49.85442" lon="2.13085">
        <ele>123.8</ele>
        <time>2013-10-27T09:16:24Z</time>
      </trkpt>
      <trkpt lat="49.85434" lon="2.13103">
        <ele>124.1</ele>
        <time>2013-10-27T09:16:34Z</time>
      </trkpt>
      <trkpt lat="49.85429" lon="2.13123">
        <ele>124.3</ele>
        <time>2013-10-27T09:16:43Z</time>
      </trkpt>
      <trkpt lat="49.85427" lon="2.13146">
        <ele>124.5</ele>
        <time>2013-10-27T09:16:54Z</time>
      </trkpt>
      <trkpt lat="49.85422" lon="2.13165">
        <ele>124.7</ele>
        <time>2013-10-27T09:17:06Z</time>
      </trkpt>
      <trkpt lat="49.85412" lon="2.13182">
        <ele>124.8</ele>
        <time>2013-10-27T09:17:16Z</time>
      </trkpt>
      <trkpt lat="49.85405" lon="2.13201">
        <ele>125</ele>
        <time>2013-10-27T09:17:25Z</time>
      </trkpt>
      <trkpt lat="49.854" lon="2.13222">
        <ele>125.1</ele>
        <time>2013-10-27T09:17:34Z</time>
      </trkpt>
      <trkpt lat="49.85393" lon="2.13241">
        <ele>125.3</ele>
        <time>2013-10-27T09:17:44Z</time>
      </trkpt>
      <trkpt lat="49.85388" lon="2.13262">
        <ele>125.5</ele>
        <time>2013-10-27T09:17:54Z</time>
      </trkpt>
      <trkpt lat="49.85381" lon="2.13281">
        <ele>125.7</ele>
        <time>2013-10-27T09:18:05Z</time>
      </trkpt>
      <trkpt lat="49.85375" lon="2.13301">
        <ele>125.8</ele>
        <time>2013-10-27T09:18:16Z</time>
      </trkpt>
      <trkpt lat="49.85369" lon="2.1332">
        <ele>126</ele>
        <time>2013-10-27T09:18:29Z</time>
      </trkpt>
      <trkpt lat="49.85363" lon="2.1334">
        <ele>126.2</ele>
        <time>2013-10-27T09:18:41Z</time>
      </trkpt>
      <trkpt lat="49.85356" lon="2.13358">
        <ele>126.4</ele>
        <time>2013-10-27T09:18:51Z</time>
      </trkpt>
      <trkpt lat="49.8535" lon="2.13379">
        <ele>126.6</ele>
        <time>2013-10-27T09:19:01Z</time>
      </trkpt>
      <trkpt lat="49.85344" lon="2.134">
        <ele>126.8</ele>
        <time>2013-10-27T09:19:11Z</time>
      </trkpt>
      <trkpt lat="49.85339" lon="2.13421">
        <ele>126.9</ele>
        <time>2013-10-27T09:19:19Z</time>
      </trkpt>
      <trkpt lat="49.85336" lon="2.13441">
        <ele>126.9</ele>
        <time>2013-10-27T09:19:28Z</time>
      </trkpt>
      <trkpt lat="49.85327" lon="2.1346">
        <ele>126.2</ele>
        <time>2013-10-27T09:19:40Z</time>
      </trkpt>
      <trkpt lat="49.85322" lon="2.13481">
        <ele>125.7</ele>
        <time>2013-10-27T09:19:50Z</time>
      </trkpt>
      <trkpt lat="49.85315" lon="2.135">
        <ele>125.1</ele>
        <time>2013-10-27T09:20:00Z</time>
      </trkpt>
      <trkpt lat="49.85309" lon="2.1352">
        <ele>124.6</ele>
        <time>2013-10-27T09:20:09Z</time>
      </trkpt>
      <trkpt lat="49.85303" lon="2.13539">
        <ele>123.9</ele>
        <time>2013-10-27T09:20:21Z</time>
      </trkpt>
      <trkpt lat="49.85294" lon="2.13556">
        <ele>123.3</ele>
        <time>2013-10-27T09:20:33Z</time>
      </trkpt>
      <trkpt lat="49.8528" lon="2.1356">
        <ele>122.6</ele>
        <time>2013-10-27T09:20:41Z</time>
      </trkpt>
      <trkpt lat="49.85267" lon="2.13557">
        <ele>121.2</ele>
        <time>2013-10-27T09:20:51Z</time>
      </trkpt>
      <trkpt lat="49.85254" lon="2.13549">
        <ele>119.8</ele>
        <time>2013-10-27T09:21:02Z</time>
      </trkpt>
      <trkpt lat="49.85241" lon="2.1354">
        <ele>118.7</ele>
        <time>2013-10-27T09:21:11Z</time>
      </trkpt>
      <trkpt lat="49.85227" lon="2.13533">
        <ele>117.6</ele>
        <time>2013-10-27T09:21:21Z</time>
      </trkpt>
      <trkpt lat="49.85214" lon="2.13526">
        <ele>117</ele>
        <time>2013-10-27T09:21:34Z</time>
      </trkpt>
      <trkpt lat="49.852" lon="2.13519">
        <ele>117.1</ele>
        <time>2013-10-27T09:21:45Z</time>
      </trkpt>
      <trkpt lat="49.85187" lon="2.1351">
        <ele>117.8</ele>
        <time>2013-10-27T09:21:54Z</time>
      </trkpt>
      <trkpt lat="49.85175" lon="2.135">
        <ele>118.5</ele>
        <time>2013-10-27T09:22:04Z</time>
      </trkpt>
      <trkpt lat="49.85161" lon="2.13492">
        <ele>119.4</ele>
        <time>2013-10-27T09:22:17Z</time>
      </trkpt>
      <trkpt lat="49.85149" lon="2.13483">
        <ele>120.1</ele>
        <time>2013-10-27T09:22:27Z</time>
      </trkpt>
      <trkpt lat="49.85136" lon="2.13477">
        <ele>120.8</ele>
        <time>2013-10-27T09:22:36Z</time>
      </trkpt>
      <trkpt lat="49.85107" lon="2.1348">
        <ele>120.7</ele>
        <time>2013-10-27T09:22:56Z</time>
      </trkpt>
      <trkpt lat="49.85107" lon="2.1348">
        <ele>120.7</ele>
        <time>2013-10-27T09:26:56Z</time>
      </trkpt>
      <trkpt lat="49.85093" lon="2.1349">
        <ele>121.5</ele>
        <time>2013-10-27T09:27:02Z</time>
      </trkpt>
      <trkpt lat="49.85093" lon="2.13511">
        <ele>121.4</ele>
        <time>2013-10-27T09:27:11Z</time>
      </trkpt>
      <trkpt lat="49.85091" lon="2.13532">
        <ele>121.2</ele>
        <time>2013-10-27T09:27:22Z</time>
      </trkpt>
      <trkpt lat="49.85091" lon="2.13556">
        <ele>121</ele>
        <time>2013-10-27T09:27:31Z</time>
      </trkpt>
      <trkpt lat="49.85089" lon="2.13578">
        <ele>120.9</ele>
        <time>2013-10-27T09:27:40Z</time>
      </trkpt>
      <trkpt lat="49.85089" lon="2.13601">
        <ele>120.7</ele>
        <time>2013-10-27T09:27:51Z</time>
      </trkpt>
      <trkpt lat="49.85088" lon="2.13622">
        <ele>120.5</ele>
        <time>2013-10-27T09:28:02Z</time>
      </trkpt>
      <trkpt lat="49.85086" lon="2.13643">
        <ele>120.3</ele>
        <time>2013-10-27T09:28:11Z</time>
      </trkpt>
      <trkpt lat="49.85083" lon="2.13664">
        <ele>120.1</ele>
        <time>2013-10-27T09:28:22Z</time>
      </trkpt>
      <trkpt lat="49.8508" lon="2.13685">
        <ele>119.4</ele>
        <time>2013-10-27T09:28:33Z</time>
      </trkpt>
      <trkpt lat="49.85079" lon="2.13706">
        <ele>117.9</ele>
        <time>2013-10-27T09:28:41Z</time>
      </trkpt>
      <trkpt lat="49.85076" lon="2.13727">
        <ele>116.1</ele>
        <time>2013-10-27T09:28:51Z</time>
      </trkpt>
      <trkpt lat="49.8507" lon="2.13747">
        <ele>116.2</ele>
        <time>2013-10-27T09:29:01Z</time>
      </trkpt>
      <trkpt lat="49.85067" lon="2.13769">
        <ele>117.7</ele>
        <time>2013-10-27T09:29:10Z</time>
      </trkpt>
      <trkpt lat="49.85068" lon="2.1379">
        <ele>116.6</ele>
        <time>2013-10-27T09:29:20Z</time>
      </trkpt>
      <trkpt lat="49.85071" lon="2.13812">
        <ele>115.2</ele>
        <time>2013-10-27T09:29:32Z</time>
      </trkpt>
      <trkpt lat="49.85074" lon="2.13834">
        <ele>116.2</ele>
        <time>2013-10-27T09:29:42Z</time>
      </trkpt>
      <trkpt lat="49.85075" lon="2.13855">
        <ele>117.6</ele>
        <time>2013-10-27T09:29:51Z</time>
      </trkpt>
      <trkpt lat="49.85075" lon="2.13878">
        <ele>118.9</ele>
        <time>2013-10-27T09:30:02Z</time>
      </trkpt>
      <trkpt lat="49.85078" lon="2.139">
        <ele>118.3</ele>
        <time>2013-10-27T09:30:11Z</time>
      </trkpt>
      <trkpt lat="49.85082" lon="2.13921">
        <ele>117.6</ele>
        <time>2013-10-27T09:30:22Z</time>
      </trkpt>
      <trkpt lat="49.85087" lon="2.13942">
        <ele>116.9</ele>
        <time>2013-10-27T09:30:34Z</time>
      </trkpt>
      <trkpt lat="49.85091" lon="2.13962">
        <ele>116.2</ele>
        <time>2013-10-27T09:30:44Z</time>
      </trkpt>
      <trkpt lat="49.85086" lon="2.13982">
        <ele>115.7</ele>
        <time>2013-10-27T09:30:53Z</time>
      </trkpt>
      <trkpt lat="49.85081" lon="2.14004">
        <ele>115.1</ele>
        <time>2013-10-27T09:31:02Z</time>
      </trkpt>
      <trkpt lat="49.85077" lon="2.14025">
        <ele>114.3</ele>
        <time>2013-10-27T09:31:11Z</time>
      </trkpt>
      <trkpt lat="49.85071" lon="2.14045">
        <ele>113.3</ele>
        <time>2013-10-27T09:31:20Z</time>
      </trkpt>
      <trkpt lat="49.85064" lon="2.14064">
        <ele>112.3</ele>
        <time>2013-10-27T09:31:30Z</time>
      </trkpt>
      <trkpt lat="49.85058" lon="2.14085">
        <ele>111.1</ele>
        <time>2013-10-27T09:31:41Z</time>
      </trkpt>
      <trkpt lat="49.85055" lon="2.14106">
        <ele>109.3</ele>
        <time>2013-10-27T09:31:52Z</time>
      </trkpt>
      <trkpt lat="49.85057" lon="2.14128">
        <ele>109.8</ele>
        <time>2013-10-27T09:32:03Z</time>
      </trkpt>
      <trkpt lat="49.85059" lon="2.1415">
        <ele>111.9</ele>
        <time>2013-10-27T09:32:14Z</time>
      </trkpt>
      <trkpt lat="49.8507" lon="2.14163">
        <ele>114.1</ele>
        <time>2013-10-27T09:32:24Z</time>
      </trkpt>
      <trkpt lat="49.8508" lon="2.14178">
        <ele>110.2</ele>
        <time>2013-10-27T09:32:37Z</time>
      </trkpt>
      <trkpt lat="49.85089" lon="2.14196">
        <ele>111.1</ele>
        <time>2013-10-27T09:32:52Z</time>
      </trkpt>
      <trkpt lat="49.85102" lon="2.14205">
        <ele>111.5</ele>
        <time>2013-10-27T09:32:58Z</time>
      </trkpt>
      <trkpt lat="49.85115" lon="2.14211">
        <ele>112.1</ele>
        <time>2013-10-27T09:33:08Z</time>
      </trkpt>
      <trkpt lat="49.85123" lon="2.14228">
        <ele>112.8</ele>
        <time>2013-10-27T09:33:19Z</time>
      </trkpt>
      <trkpt lat="49.85136" lon="2.14233">
        <ele>113.7</ele>
        <time>2013-10-27T09:33:27Z</time>
      </trkpt>
      <trkpt lat="49.8515" lon="2.14236">
        <ele>115.4</ele>
        <time>2013-10-27T09:33:36Z</time>
      </trkpt>
      <trkpt lat="49.85162" lon="2.14223">
        <ele>116</ele>
        <time>2013-10-27T09:33:39Z</time>
      </trkpt>
      <trkpt lat="49.85171" lon="2.14216">
        <ele>117</ele>
        <time>2013-10-27T09:33:43Z</time>
      </trkpt>
      <trkpt lat="49.85171" lon="2.14226">
        <ele>118</ele>
        <time>2013-10-27T09:33:47Z</time>
      </trkpt>
      <trkpt lat="49.85136" lon="2.14242">
        <ele>118.3</ele>
        <time>2013-10-27T09:33:48Z</time>
      </trkpt>
      <trkpt lat="49.8514" lon="2.14263">
        <ele>120.8</ele>
        <time>2013-10-27T09:33:58Z</time>
      </trkpt>
      <trkpt lat="49.85155" lon="2.14264">
        <ele>122.2</ele>
        <time>2013-10-27T09:34:03Z</time>
      </trkpt>
      <trkpt lat="49.8517" lon="2.14264">
        <ele>123</ele>
        <time>2013-10-27T09:34:08Z</time>
      </trkpt>
      <trkpt lat="49.8518" lon="2.14271">
        <ele>123.4</ele>
        <time>2013-10-27T09:34:21Z</time>
      </trkpt>
      <trkpt lat="49.85177" lon="2.14292">
        <ele>123.5</ele>
        <time>2013-10-27T09:34:28Z</time>
      </trkpt>
      <trkpt lat="49.85179" lon="2.14296">
        <ele>123.7</ele>
        <time>2013-10-27T09:34:32Z</time>
      </trkpt>
      <trkpt lat="49.85193" lon="2.14297">
        <ele>123.8</ele>
        <time>2013-10-27T09:34:38Z</time>
      </trkpt>
      <trkpt lat="49.85206" lon="2.14308">
        <ele>124.7</ele>
        <time>2013-10-27T09:34:48Z</time>
      </trkpt>
      <trkpt lat="49.85221" lon="2.14311">
        <ele>128</ele>
        <time>2013-10-27T09:34:57Z</time>
      </trkpt>
      <trkpt lat="49.85234" lon="2.14305">
        <ele>126.7</ele>
        <time>2013-10-27T09:35:04Z</time>
      </trkpt>
      <trkpt lat="49.85241" lon="2.14286">
        <ele>124</ele>
        <time>2013-10-27T09:35:14Z</time>
      </trkpt>
      <trkpt lat="49.85241" lon="2.14264">
        <ele>123.3</ele>
        <time>2013-10-27T09:35:26Z</time>
      </trkpt>
      <trkpt lat="49.85238" lon="2.14243">
        <ele>122.8</ele>
        <time>2013-10-27T09:35:35Z</time>
      </trkpt>
      <trkpt lat="49.85241" lon="2.14222">
        <ele>122.3</ele>
        <time>2013-10-27T09:35:45Z</time>
      </trkpt>
      <trkpt lat="49.85251" lon="2.14205">
        <ele>121.6</ele>
        <time>2013-10-27T09:35:58Z</time>
      </trkpt>
      <trkpt lat="49.85256" lon="2.14185">
        <ele>121</ele>
        <time>2013-10-27T09:36:08Z</time>
      </trkpt>
      <trkpt lat="49.85257" lon="2.14162">
        <ele>120.1</ele>
        <time>2013-10-27T09:36:24Z</time>
      </trkpt>
      <trkpt lat="49.85259" lon="2.14141">
        <ele>119.6</ele>
        <time>2013-10-27T09:36:33Z</time>
      </trkpt>
      <trkpt lat="49.85265" lon="2.14121">
        <ele>119.1</ele>
        <time>2013-10-27T09:36:43Z</time>
      </trkpt>
      <trkpt lat="49.85267" lon="2.14108">
        <ele>119.6</ele>
        <time>2013-10-27T09:36:54Z</time>
      </trkpt>
      <trkpt lat="49.85275" lon="2.14116">
        <ele>120.3</ele>
        <time>2013-10-27T09:37:05Z</time>
      </trkpt>
      <trkpt lat="49.85288" lon="2.14109">
        <ele>120.8</ele>
        <time>2013-10-27T09:37:14Z</time>
      </trkpt>
      <trkpt lat="49.85302" lon="2.14108">
        <ele>121.3</ele>
        <time>2013-10-27T09:37:22Z</time>
      </trkpt>
      <trkpt lat="49.85309" lon="2.14112">
        <ele>121.6</ele>
        <time>2013-10-27T09:37:28Z</time>
      </trkpt>
      <trkpt lat="49.85324" lon="2.14117">
        <ele>124.8</ele>
        <time>2013-10-27T09:37:41Z</time>
      </trkpt>
      <trkpt lat="49.85338" lon="2.14116">
        <ele>124.2</ele>
        <time>2013-10-27T09:37:49Z</time>
      </trkpt>
      <trkpt lat="49.85352" lon="2.14113">
        <ele>123.6</ele>
        <time>2013-10-27T09:37:57Z</time>
      </trkpt>
      <trkpt lat="49.85366" lon="2.14116">
        <ele>123.1</ele>
        <time>2013-10-27T09:38:04Z</time>
      </trkpt>
      <trkpt lat="49.8538" lon="2.14115">
        <ele>122.5</ele>
        <time>2013-10-27T09:38:11Z</time>
      </trkpt>
      <trkpt lat="49.85395" lon="2.1412">
        <ele>122.3</ele>
        <time>2013-10-27T09:38:22Z</time>
      </trkpt>
      <trkpt lat="49.85408" lon="2.14114">
        <ele>123.4</ele>
        <time>2013-10-27T09:38:37Z</time>
      </trkpt>
      <trkpt lat="49.85415" lon="2.14094">
        <ele>124.8</ele>
        <time>2013-10-27T09:38:55Z</time>
      </trkpt>
      <trkpt lat="49.85418" lon="2.14073">
        <ele>124.7</ele>
        <time>2013-10-27T09:39:05Z</time>
      </trkpt>
      <trkpt lat="49.85425" lon="2.14055">
        <ele>123.9</ele>
        <time>2013-10-27T09:39:22Z</time>
      </trkpt>
      <trkpt lat="49.85438" lon="2.14046">
        <ele>123.3</ele>
        <time>2013-10-27T09:39:36Z</time>
      </trkpt>
      <trkpt lat="49.85446" lon="2.14027">
        <ele>122.9</ele>
        <time>2013-10-27T09:39:44Z</time>
      </trkpt>
      <trkpt lat="49.85452" lon="2.14008">
        <ele>122.6</ele>
        <time>2013-10-27T09:39:51Z</time>
      </trkpt>
      <trkpt lat="49.85457" lon="2.13988">
        <ele>122</ele>
        <time>2013-10-27T09:40:05Z</time>
      </trkpt>
      <trkpt lat="49.85463" lon="2.13968">
        <ele>123</ele>
        <time>2013-10-27T09:40:13Z</time>
      </trkpt>
      <trkpt lat="49.85468" lon="2.13948">
        <ele>124.1</ele>
        <time>2013-10-27T09:40:21Z</time>
      </trkpt>
      <trkpt lat="49.85476" lon="2.13931">
        <ele>128</ele>
        <time>2013-10-27T09:40:33Z</time>
      </trkpt>
      <trkpt lat="49.8549" lon="2.13919">
        <ele>123.8</ele>
        <time>2013-10-27T09:40:45Z</time>
      </trkpt>
      <trkpt lat="49.85494" lon="2.13911">
        <ele>121.7</ele>
        <time>2013-10-27T09:40:51Z</time>
      </trkpt>
      <trkpt lat="49.85491" lon="2.13905">
        <ele>120</ele>
        <time>2013-10-27T09:40:56Z</time>
      </trkpt>
      <trkpt lat="49.85502" lon="2.13884">
        <ele>123</ele>
        <time>2013-10-27T09:41:06Z</time>
      </trkpt>
      <trkpt lat="49.85517" lon="2.13881">
        <ele>120.3</ele>
        <time>2013-10-27T09:41:26Z</time>
      </trkpt>
      <trkpt lat="49.85533" lon="2.13869">
        <ele>120.2</ele>
        <time>2013-10-27T09:41:35Z</time>
      </trkpt>
      <trkpt lat="49.85547" lon="2.13867">
        <ele>118.2</ele>
        <time>2013-10-27T09:41:50Z</time>
      </trkpt>
      <trkpt lat="49.85554" lon="2.13865">
        <ele>115.8</ele>
        <time>2013-10-27T09:41:55Z</time>
      </trkpt>
      <trkpt lat="49.8557" lon="2.13869">
        <ele>113.5</ele>
        <time>2013-10-27T09:42:00Z</time>
      </trkpt>
      <trkpt lat="49.85583" lon="2.13864">
        <ele>112</ele>
        <time>2013-10-27T09:42:08Z</time>
      </trkpt>
      <trkpt lat="49.85595" lon="2.13852">
        <ele>110.7</ele>
        <time>2013-10-27T09:42:18Z</time>
      </trkpt>
      <trkpt lat="49.85596" lon="2.13844">
        <ele>110.2</ele>
        <time>2013-10-27T09:42:24Z</time>
      </trkpt>
      <trkpt lat="49.85604" lon="2.13864">
        <ele>111.3</ele>
        <time>2013-10-27T09:42:31Z</time>
      </trkpt>
      <trkpt lat="49.85618" lon="2.1386">
        <ele>112.3</ele>
        <time>2013-10-27T09:42:38Z</time>
      </trkpt>
      <trkpt lat="49.85631" lon="2.13844">
        <ele>113.3</ele>
        <time>2013-10-27T09:42:44Z</time>
      </trkpt>
      <trkpt lat="49.85642" lon="2.13829">
        <ele>114.2</ele>
        <time>2013-10-27T09:42:50Z</time>
      </trkpt>
      <trkpt lat="49.85655" lon="2.1382">
        <ele>115.3</ele>
        <time>2013-10-27T09:42:56Z</time>
      </trkpt>
      <trkpt lat="49.85667" lon="2.13815">
        <ele>117.2</ele>
        <time>2013-10-27T09:43:04Z</time>
      </trkpt>
      <trkpt lat="49.85671" lon="2.13794">
        <ele>118.2</ele>
        <time>2013-10-27T09:43:10Z</time>
      </trkpt>
      <trkpt lat="49.85681" lon="2.13778">
        <ele>118.9</ele>
        <time>2013-10-27T09:43:21Z</time>
      </trkpt>
      <trkpt lat="49.85687" lon="2.13772">
        <ele>117.8</ele>
        <time>2013-10-27T09:43:25Z</time>
      </trkpt>
      <trkpt lat="49.85699" lon="2.13779">
        <ele>115.6</ele>
        <time>2013-10-27T09:43:34Z</time>
      </trkpt>
      <trkpt lat="49.85712" lon="2.13775">
        <ele>113.3</ele>
        <time>2013-10-27T09:43:43Z</time>
      </trkpt>
      <trkpt lat="49.85724" lon="2.13762">
        <ele>112</ele>
        <time>2013-10-27T09:43:53Z</time>
      </trkpt>
      <trkpt lat="49.85739" lon="2.13757">
        <ele>110.9</ele>
        <time>2013-10-27T09:44:02Z</time>
      </trkpt>
      <trkpt lat="49.85752" lon="2.13749">
        <ele>110.4</ele>
        <time>2013-10-27T09:44:12Z</time>
      </trkpt>
      <trkpt lat="49.85759" lon="2.1374">
        <ele>110</ele>
        <time>2013-10-27T09:44:18Z</time>
      </trkpt>
      <trkpt lat="49.85765" lon="2.13742">
        <ele>109.7</ele>
        <time>2013-10-27T09:44:22Z</time>
      </trkpt>
      <trkpt lat="49.85766" lon="2.13721">
        <ele>109</ele>
        <time>2013-10-27T09:44:30Z</time>
      </trkpt>
      <trkpt lat="49.85773" lon="2.13721">
        <ele>110.4</ele>
        <time>2013-10-27T09:44:35Z</time>
      </trkpt>
      <trkpt lat="49.85773" lon="2.13721">
        <ele>110.4</ele>
        <time>2013-10-27T09:45:16Z</time>
      </trkpt>
      <trkpt lat="49.85782" lon="2.13721">
        <ele>111.6</ele>
        <time>2013-10-27T09:45:16Z</time>
      </trkpt>
      <trkpt lat="49.85782" lon="2.13699">
        <ele>114.4</ele>
        <time>2013-10-27T09:45:27Z</time>
      </trkpt>
      <trkpt lat="49.85786" lon="2.13677">
        <ele>116.4</ele>
        <time>2013-10-27T09:45:41Z</time>
      </trkpt>
      <trkpt lat="49.85796" lon="2.13661">
        <ele>115.1</ele>
        <time>2013-10-27T09:45:55Z</time>
      </trkpt>
      <trkpt lat="49.858" lon="2.1364">
        <ele>114.7</ele>
        <time>2013-10-27T09:46:03Z</time>
      </trkpt>
      <trkpt lat="49.858" lon="2.13618">
        <ele>114.2</ele>
        <time>2013-10-27T09:46:13Z</time>
      </trkpt>
      <trkpt lat="49.85801" lon="2.13595">
        <ele>113.8</ele>
        <time>2013-10-27T09:46:23Z</time>
      </trkpt>
      <trkpt lat="49.858" lon="2.13573">
        <ele>113.4</ele>
        <time>2013-10-27T09:46:30Z</time>
      </trkpt>
      <trkpt lat="49.8581" lon="2.13557">
        <ele>112.8</ele>
        <time>2013-10-27T09:46:43Z</time>
      </trkpt>
      <trkpt lat="49.85814" lon="2.13536">
        <ele>112.4</ele>
        <time>2013-10-27T09:46:53Z</time>
      </trkpt>
      <trkpt lat="49.85816" lon="2.13514">
        <ele>110.7</ele>
        <time>2013-10-27T09:47:06Z</time>
      </trkpt>
      <trkpt lat="49.85815" lon="2.13492">
        <ele>108</ele>
        <time>2013-10-27T09:47:17Z</time>
      </trkpt>
      <trkpt lat="49.85818" lon="2.1347">
        <ele>109.6</ele>
        <time>2013-10-27T09:47:28Z</time>
      </trkpt>
      <trkpt lat="49.85817" lon="2.13448">
        <ele>111.1</ele>
        <time>2013-10-27T09:47:38Z</time>
      </trkpt>
      <trkpt lat="49.85819" lon="2.13427">
        <ele>112.7</ele>
        <time>2013-10-27T09:47:49Z</time>
      </trkpt>
      <trkpt lat="49.85824" lon="2.13408">
        <ele>111.2</ele>
        <time>2013-10-27T09:48:01Z</time>
      </trkpt>
      <trkpt lat="49.85827" lon="2.13386">
        <ele>114.6</ele>
        <time>2013-10-27T09:48:12Z</time>
      </trkpt>
      <trkpt lat="49.85831" lon="2.13365">
        <ele>121.9</ele>
        <time>2013-10-27T09:48:21Z</time>
      </trkpt>
      <trkpt lat="49.85835" lon="2.13344">
        <ele>121.4</ele>
        <time>2013-10-27T09:48:32Z</time>
      </trkpt>
      <trkpt lat="49.85838" lon="2.13322">
        <ele>120.8</ele>
        <time>2013-10-27T09:48:44Z</time>
      </trkpt>
      <trkpt lat="49.85838" lon="2.133">
        <ele>120.1</ele>
        <time>2013-10-27T09:48:54Z</time>
      </trkpt>
      <trkpt lat="49.85835" lon="2.13278">
        <ele>119.4</ele>
        <time>2013-10-27T09:49:04Z</time>
      </trkpt>
      <trkpt lat="49.85837" lon="2.13264">
        <ele>118.9</ele>
        <time>2013-10-27T09:49:12Z</time>
      </trkpt>
      <trkpt lat="49.85847" lon="2.13249">
        <ele>118.1</ele>
        <time>2013-10-27T09:49:24Z</time>
      </trkpt>
      <trkpt lat="49.85849" lon="2.13237">
        <ele>116.7</ele>
        <time>2013-10-27T09:49:30Z</time>
      </trkpt>
      <trkpt lat="49.85859" lon="2.1322">
        <ele>115</ele>
        <time>2013-10-27T09:49:41Z</time>
      </trkpt>
      <trkpt lat="49.85864" lon="2.13201">
        <ele>115</ele>
        <time>2013-10-27T09:49:50Z</time>
      </trkpt>
      <trkpt lat="49.85869" lon="2.13181">
        <ele>115</ele>
        <time>2013-10-27T09:50:02Z</time>
      </trkpt>
      <trkpt lat="49.85872" lon="2.13159">
        <ele>112.3</ele>
        <time>2013-10-27T09:50:14Z</time>
      </trkpt>
      <trkpt lat="49.85875" lon="2.13137">
        <ele>111.6</ele>
        <time>2013-10-27T09:50:24Z</time>
      </trkpt>
      <trkpt lat="49.85883" lon="2.13119">
        <ele>111</ele>
        <time>2013-10-27T09:50:40Z</time>
      </trkpt>
      <trkpt lat="49.85891" lon="2.13101">
        <ele>109.7</ele>
        <time>2013-10-27T09:50:52Z</time>
      </trkpt>
      <trkpt lat="49.85898" lon="2.13081">
        <ele>111.1</ele>
        <time>2013-10-27T09:51:03Z</time>
      </trkpt>
      <trkpt lat="49.85904" lon="2.13062">
        <ele>111.8</ele>
        <time>2013-10-27T09:51:12Z</time>
      </trkpt>
      <trkpt lat="49.8591" lon="2.13042">
        <ele>110.9</ele>
        <time>2013-10-27T09:51:25Z</time>
      </trkpt>
      <trkpt lat="49.85917" lon="2.13023">
        <ele>110.1</ele>
        <time>2013-10-27T09:51:37Z</time>
      </trkpt>
      <trkpt lat="49.85919" lon="2.13002">
        <ele>109.4</ele>
        <time>2013-10-27T09:51:48Z</time>
      </trkpt>
      <trkpt lat="49.85924" lon="2.12982">
        <ele>110.1</ele>
        <time>2013-10-27T09:52:00Z</time>
      </trkpt>
      <trkpt lat="49.85939" lon="2.12929">
        <ele>114.9</ele>
        <time>2013-10-27T09:52:22Z</time>
      </trkpt>
      <trkpt lat="49.85939" lon="2.12929">
        <ele>114.9</ele>
        <time>2013-10-27T09:54:10Z</time>
      </trkpt>
      <trkpt lat="49.85948" lon="2.12897">
        <ele>118</ele>
        <time>2013-10-27T09:54:18Z</time>
      </trkpt>
      <trkpt lat="49.85949" lon="2.12875">
        <ele>117.3</ele>
        <time>2013-10-27T09:54:29Z</time>
      </trkpt>
      <trkpt lat="49.85953" lon="2.12864">
        <ele>116.8</ele>
        <time>2013-10-27T09:54:38Z</time>
      </trkpt>
      <trkpt lat="49.85966" lon="2.12865">
        <ele>116.3</ele>
        <time>2013-10-27T09:54:46Z</time>
      </trkpt>
      <trkpt lat="49.85979" lon="2.12855">
        <ele>115.8</ele>
        <time>2013-10-27T09:54:54Z</time>
      </trkpt>
      <trkpt lat="49.85989" lon="2.12841">
        <ele>115.3</ele>
        <time>2013-10-27T09:55:02Z</time>
      </trkpt>
      <trkpt lat="49.86001" lon="2.12826">
        <ele>117.4</ele>
        <time>2013-10-27T09:55:13Z</time>
      </trkpt>
      <trkpt lat="49.86009" lon="2.12807">
        <ele>121</ele>
        <time>2013-10-27T09:55:23Z</time>
      </trkpt>
      <trkpt lat="49.86019" lon="2.12792">
        <ele>123.5</ele>
        <time>2013-10-27T09:55:37Z</time>
      </trkpt>
      <trkpt lat="49.86022" lon="2.12772">
        <ele>123</ele>
        <time>2013-10-27T09:55:47Z</time>
      </trkpt>
      <trkpt lat="49.86026" lon="2.12748">
        <ele>121.5</ele>
        <time>2013-10-27T09:55:58Z</time>
      </trkpt>
      <trkpt lat="49.86029" lon="2.12738">
        <ele>120.7</ele>
        <time>2013-10-27T09:56:04Z</time>
      </trkpt>
      <trkpt lat="49.86039" lon="2.12756">
        <ele>119.9</ele>
        <time>2013-10-27T09:56:10Z</time>
      </trkpt>
      <trkpt lat="49.86051" lon="2.12768">
        <ele>118.5</ele>
        <time>2013-10-27T09:56:20Z</time>
      </trkpt>
      <trkpt lat="49.86063" lon="2.12784">
        <ele>117.3</ele>
        <time>2013-10-27T09:56:29Z</time>
      </trkpt>
      <trkpt lat="49.86074" lon="2.12795">
        <ele>117</ele>
        <time>2013-10-27T09:56:37Z</time>
      </trkpt>
      <trkpt lat="49.86085" lon="2.12809">
        <ele>117</ele>
        <time>2013-10-27T09:56:47Z</time>
      </trkpt>
      <trkpt lat="49.861" lon="2.12826">
        <ele>116.9</ele>
        <time>2013-10-27T09:57:00Z</time>
      </trkpt>
      <trkpt lat="49.86113" lon="2.12831">
        <ele>116.3</ele>
        <time>2013-10-27T09:57:08Z</time>
      </trkpt>
      <trkpt lat="49.86114" lon="2.12853">
        <ele>115.3</ele>
        <time>2013-10-27T09:57:21Z</time>
      </trkpt>
      <trkpt lat="49.86118" lon="2.12874">
        <ele>114.5</ele>
        <time>2013-10-27T09:57:31Z</time>
      </trkpt>
      <trkpt lat="49.86126" lon="2.12891">
        <ele>113.9</ele>
        <time>2013-10-27T09:57:39Z</time>
      </trkpt>
      <trkpt lat="49.86135" lon="2.12908">
        <ele>113.7</ele>
        <time>2013-10-27T09:57:53Z</time>
      </trkpt>
      <trkpt lat="49.86149" lon="2.12915">
        <ele>115.9</ele>
        <time>2013-10-27T09:58:03Z</time>
      </trkpt>
      <trkpt lat="49.86139" lon="2.12929">
        <ele>114.1</ele>
        <time>2013-10-27T09:58:21Z</time>
      </trkpt>
      <trkpt lat="49.86144" lon="2.12948">
        <ele>112.7</ele>
        <time>2013-10-27T09:58:35Z</time>
      </trkpt>
      <trkpt lat="49.86149" lon="2.1297">
        <ele>112.5</ele>
        <time>2013-10-27T09:58:44Z</time>
      </trkpt>
      <trkpt lat="49.86158" lon="2.12989">
        <ele>114.2</ele>
        <time>2013-10-27T09:58:50Z</time>
      </trkpt>
      <trkpt lat="49.86169" lon="2.13003">
        <ele>116.6</ele>
        <time>2013-10-27T09:58:59Z</time>
      </trkpt>
      <trkpt lat="49.86184" lon="2.13024">
        <ele>116.3</ele>
        <time>2013-10-27T09:59:14Z</time>
      </trkpt>
      <trkpt lat="49.86184" lon="2.13024">
        <ele>116.3</ele>
        <time>2013-10-27T09:59:59Z</time>
      </trkpt>
      <trkpt lat="49.86187" lon="2.13036">
        <ele>115.3</ele>
        <time>2013-10-27T10:00:03Z</time>
      </trkpt>
      <trkpt lat="49.86193" lon="2.13035">
        <ele>115.9</ele>
        <time>2013-10-27T10:00:15Z</time>
      </trkpt>
      <trkpt lat="49.86193" lon="2.13035">
        <ele>115.9</ele>
        <time>2013-10-27T10:00:48Z</time>
      </trkpt>
      <trkpt lat="49.86202" lon="2.13028">
        <ele>116.5</ele>
        <time>2013-10-27T10:00:48Z</time>
      </trkpt>
      <trkpt lat="49.86193" lon="2.13011">
        <ele>122.7</ele>
        <time>2013-10-27T10:01:15Z</time>
      </trkpt>
      <trkpt lat="49.86175" lon="2.13013">
        <ele>130.1</ele>
        <time>2013-10-27T10:01:28Z</time>
      </trkpt>
      <trkpt lat="49.86175" lon="2.13013">
        <ele>130.1</ele>
        <time>2013-10-27T10:05:57Z</time>
      </trkpt>
      <trkpt lat="49.86172" lon="2.13026">
        <ele>131</ele>
        <time>2013-10-27T10:06:00Z</time>
      </trkpt>
      <trkpt lat="49.86173" lon="2.13013">
        <ele>127.8</ele>
        <time>2013-10-27T10:06:25Z</time>
      </trkpt>
      <trkpt lat="49.86173" lon="2.13013">
        <ele>127.8</ele>
        <time>2013-10-27T10:07:05Z</time>
      </trkpt>
      <trkpt lat="49.86171" lon="2.13014">
        <ele>124.9</ele>
        <time>2013-10-27T10:07:05Z</time>
      </trkpt>
      <trkpt lat="49.86166" lon="2.13009">
        <ele>142</ele>
        <time>2013-10-27T10:07:25Z</time>
      </trkpt>
      <trkpt lat="49.86166" lon="2.13009">
        <ele>142</ele>
        <time>2013-10-27T10:11:48Z</time>
      </trkpt>
      <trkpt lat="49.86157" lon="2.13008">
        <ele>159</ele>
        <time>2013-10-27T10:11:52Z</time>
      </trkpt>
      <trkpt lat="49.86174" lon="2.13025">
        <ele>151.1</ele>
        <time>2013-10-27T10:12:04Z</time>
      </trkpt>
      <trkpt lat="49.86174" lon="2.13025">
        <ele>151.1</ele>
        <time>2013-10-27T10:12:47Z</time>
      </trkpt>
      <trkpt lat="49.86187" lon="2.13033">
        <ele>144.2</ele>
        <time>2013-10-27T10:12:50Z</time>
      </trkpt>
      <trkpt lat="49.86201" lon="2.13039">
        <ele>142.6</ele>
        <time>2013-10-27T10:12:56Z</time>
      </trkpt>
      <trkpt lat="49.86214" lon="2.13025">
        <ele>134.8</ele>
        <time>2013-10-27T10:13:09Z</time>
      </trkpt>
      <trkpt lat="49.8623" lon="2.13013">
        <ele>130.8</ele>
        <time>2013-10-27T10:13:18Z</time>
      </trkpt>
      <trkpt lat="49.86241" lon="2.13027">
        <ele>127</ele>
        <time>2013-10-27T10:13:26Z</time>
      </trkpt>
      <trkpt lat="49.86248" lon="2.13045">
        <ele>126.3</ele>
        <time>2013-10-27T10:13:35Z</time>
      </trkpt>
      <trkpt lat="49.86258" lon="2.13067">
        <ele>125.7</ele>
        <time>2013-10-27T10:13:43Z</time>
      </trkpt>
      <trkpt lat="49.86285" lon="2.13073">
        <ele>125.3</ele>
        <time>2013-10-27T10:13:48Z</time>
      </trkpt>
      <trkpt lat="49.86291" lon="2.13082">
        <ele>125</ele>
        <time>2013-10-27T10:13:52Z</time>
      </trkpt>
      <trkpt lat="49.86282" lon="2.13098">
        <ele>123.9</ele>
        <time>2013-10-27T10:14:08Z</time>
      </trkpt>
      <trkpt lat="49.86289" lon="2.13117">
        <ele>123.1</ele>
        <time>2013-10-27T10:14:20Z</time>
      </trkpt>
      <trkpt lat="49.86302" lon="2.13128">
        <ele>121.1</ele>
        <time>2013-10-27T10:14:31Z</time>
      </trkpt>
      <trkpt lat="49.86311" lon="2.13144">
        <ele>118.8</ele>
        <time>2013-10-27T10:14:42Z</time>
      </trkpt>
      <trkpt lat="49.86317" lon="2.13163">
        <ele>118.6</ele>
        <time>2013-10-27T10:14:53Z</time>
      </trkpt>
      <trkpt lat="49.86328" lon="2.13177">
        <ele>118.9</ele>
        <time>2013-10-27T10:15:03Z</time>
      </trkpt>
      <trkpt lat="49.86338" lon="2.13192">
        <ele>118.6</ele>
        <time>2013-10-27T10:15:10Z</time>
      </trkpt>
      <trkpt lat="49.86348" lon="2.13207">
        <ele>118.2</ele>
        <time>2013-10-27T10:15:19Z</time>
      </trkpt>
      <trkpt lat="49.86362" lon="2.13213">
        <ele>117.8</ele>
        <time>2013-10-27T10:15:27Z</time>
      </trkpt>
      <trkpt lat="49.86374" lon="2.13202">
        <ele>117.2</ele>
        <time>2013-10-27T10:15:40Z</time>
      </trkpt>
      <trkpt lat="49.86386" lon="2.13189">
        <ele>116.6</ele>
        <time>2013-10-27T10:15:53Z</time>
      </trkpt>
      <trkpt lat="49.86388" lon="2.13166">
        <ele>116.2</ele>
        <time>2013-10-27T10:16:03Z</time>
      </trkpt>
      <trkpt lat="49.8639" lon="2.13144">
        <ele>115.7</ele>
        <time>2013-10-27T10:16:11Z</time>
      </trkpt>
      <trkpt lat="49.86403" lon="2.13133">
        <ele>115.1</ele>
        <time>2013-10-27T10:16:21Z</time>
      </trkpt>
      <trkpt lat="49.86418" lon="2.13123">
        <ele>114.5</ele>
        <time>2013-10-27T10:16:30Z</time>
      </trkpt>
      <trkpt lat="49.86431" lon="2.1312">
        <ele>113.8</ele>
        <time>2013-10-27T10:16:40Z</time>
      </trkpt>
      <trkpt lat="49.86444" lon="2.13112">
        <ele>113.2</ele>
        <time>2013-10-27T10:16:49Z</time>
      </trkpt>
      <trkpt lat="49.86452" lon="2.13094">
        <ele>115</ele>
        <time>2013-10-27T10:17:00Z</time>
      </trkpt>
      <trkpt lat="49.86461" lon="2.13076">
        <ele>116.2</ele>
        <time>2013-10-27T10:17:10Z</time>
      </trkpt>
      <trkpt lat="49.86473" lon="2.13065">
        <ele>116.4</ele>
        <time>2013-10-27T10:17:18Z</time>
      </trkpt>
      <trkpt lat="49.86486" lon="2.13055">
        <ele>116.8</ele>
        <time>2013-10-27T10:17:30Z</time>
      </trkpt>
      <trkpt lat="49.86496" lon="2.1304">
        <ele>117.2</ele>
        <time>2013-10-27T10:17:41Z</time>
      </trkpt>
      <trkpt lat="49.8651" lon="2.13033">
        <ele>117.5</ele>
        <time>2013-10-27T10:17:53Z</time>
      </trkpt>
      <trkpt lat="49.86523" lon="2.13025">
        <ele>117.8</ele>
        <time>2013-10-27T10:18:02Z</time>
      </trkpt>
      <trkpt lat="49.86536" lon="2.13032">
        <ele>118.2</ele>
        <time>2013-10-27T10:18:14Z</time>
      </trkpt>
      <trkpt lat="49.8655" lon="2.13035">
        <ele>118.5</ele>
        <time>2013-10-27T10:18:24Z</time>
      </trkpt>
      <trkpt lat="49.86563" lon="2.13035">
        <ele>118.8</ele>
        <time>2013-10-27T10:18:32Z</time>
      </trkpt>
      <trkpt lat="49.86576" lon="2.13046">
        <ele>120.2</ele>
        <time>2013-10-27T10:18:46Z</time>
      </trkpt>
      <trkpt lat="49.8659" lon="2.13049">
        <ele>121.8</ele>
        <time>2013-10-27T10:18:55Z</time>
      </trkpt>
      <trkpt lat="49.86603" lon="2.13057">
        <ele>121.4</ele>
        <time>2013-10-27T10:19:05Z</time>
      </trkpt>
      <trkpt lat="49.86615" lon="2.13071">
        <ele>120.6</ele>
        <time>2013-10-27T10:19:17Z</time>
      </trkpt>
      <trkpt lat="49.86628" lon="2.13079">
        <ele>119.9</ele>
        <time>2013-10-27T10:19:27Z</time>
      </trkpt>
      <trkpt lat="49.86641" lon="2.13086">
        <ele>119.2</ele>
        <time>2013-10-27T10:19:38Z</time>
      </trkpt>
      <trkpt lat="49.86655" lon="2.1309">
        <ele>118.1</ele>
        <time>2013-10-27T10:19:46Z</time>
      </trkpt>
      <trkpt lat="49.86663" lon="2.13107">
        <ele>115.8</ele>
        <time>2013-10-27T10:19:59Z</time>
      </trkpt>
      <trkpt lat="49.86675" lon="2.1312">
        <ele>116</ele>
        <time>2013-10-27T10:20:09Z</time>
      </trkpt>
      <trkpt lat="49.86689" lon="2.13122">
        <ele>114.7</ele>
        <time>2013-10-27T10:20:18Z</time>
      </trkpt>
      <trkpt lat="49.86703" lon="2.13129">
        <ele>113.2</ele>
        <time>2013-10-27T10:20:29Z</time>
      </trkpt>
      <trkpt lat="49.86717" lon="2.13136">
        <ele>113.4</ele>
        <time>2013-10-27T10:20:40Z</time>
      </trkpt>
      <trkpt lat="49.86731" lon="2.13144">
        <ele>114</ele>
        <time>2013-10-27T10:20:52Z</time>
      </trkpt>
      <trkpt lat="49.86744" lon="2.13152">
        <ele>114.5</ele>
        <time>2013-10-27T10:21:04Z</time>
      </trkpt>
      <trkpt lat="49.86757" lon="2.13157">
        <ele>115.1</ele>
        <time>2013-10-27T10:21:17Z</time>
      </trkpt>
      <trkpt lat="49.86768" lon="2.13169">
        <ele>115.4</ele>
        <time>2013-10-27T10:21:24Z</time>
      </trkpt>
      <trkpt lat="49.86783" lon="2.13166">
        <ele>115.7</ele>
        <time>2013-10-27T10:21:32Z</time>
      </trkpt>
      <trkpt lat="49.86798" lon="2.13164">
        <ele>114.4</ele>
        <time>2013-10-27T10:21:40Z</time>
      </trkpt>
      <trkpt lat="49.86812" lon="2.13164">
        <ele>115</ele>
        <time>2013-10-27T10:21:48Z</time>
      </trkpt>
      <trkpt lat="49.86824" lon="2.13163">
        <ele>118.7</ele>
        <time>2013-10-27T10:21:56Z</time>
      </trkpt>
      <trkpt lat="49.86835" lon="2.13147">
        <ele>120</ele>
        <time>2013-10-27T10:22:01Z</time>
      </trkpt>
      <trkpt lat="49.86845" lon="2.13147">
        <ele>121.6</ele>
        <time>2013-10-27T10:22:08Z</time>
      </trkpt>
      <trkpt lat="49.86848" lon="2.13164">
        <ele>121.7</ele>
        <time>2013-10-27T10:22:17Z</time>
      </trkpt>
      <trkpt lat="49.86862" lon="2.13172">
        <ele>121.3</ele>
        <time>2013-10-27T10:22:30Z</time>
      </trkpt>
      <trkpt lat="49.86875" lon="2.13184">
        <ele>119.9</ele>
        <time>2013-10-27T10:22:39Z</time>
      </trkpt>
      <trkpt lat="49.86889" lon="2.13187">
        <ele>117.3</ele>
        <time>2013-10-27T10:22:51Z</time>
      </trkpt>
      <trkpt lat="49.86903" lon="2.13186">
        <ele>115.3</ele>
        <time>2013-10-27T10:23:05Z</time>
      </trkpt>
      <trkpt lat="49.86916" lon="2.1319">
        <ele>115</ele>
        <time>2013-10-27T10:23:12Z</time>
      </trkpt>
      <trkpt lat="49.86927" lon="2.13198">
        <ele>115.2</ele>
        <time>2013-10-27T10:23:19Z</time>
      </trkpt>
      <trkpt lat="49.86939" lon="2.13185">
        <ele>116</ele>
        <time>2013-10-27T10:23:24Z</time>
      </trkpt>
      <trkpt lat="49.86953" lon="2.13185">
        <ele>116.5</ele>
        <time>2013-10-27T10:23:40Z</time>
      </trkpt>
      <trkpt lat="49.86968" lon="2.13188">
        <ele>116.8</ele>
        <time>2013-10-27T10:23:49Z</time>
      </trkpt>
      <trkpt lat="49.86982" lon="2.13191">
        <ele>117.1</ele>
        <time>2013-10-27T10:23:58Z</time>
      </trkpt>
      <trkpt lat="49.86996" lon="2.13185">
        <ele>117.5</ele>
        <time>2013-10-27T10:24:09Z</time>
      </trkpt>
      <trkpt lat="49.87009" lon="2.13191">
        <ele>118</ele>
        <time>2013-10-27T10:24:25Z</time>
      </trkpt>
      <trkpt lat="49.87022" lon="2.13197">
        <ele>118.3</ele>
        <time>2013-10-27T10:24:36Z</time>
      </trkpt>
      <trkpt lat="49.87035" lon="2.13208">
        <ele>118.6</ele>
        <time>2013-10-27T10:24:46Z</time>
      </trkpt>
      <trkpt lat="49.8705" lon="2.13208">
        <ele>118.8</ele>
        <time>2013-10-27T10:24:53Z</time>
      </trkpt>
      <trkpt lat="49.87064" lon="2.13209">
        <ele>115.9</ele>
        <time>2013-10-27T10:25:04Z</time>
      </trkpt>
      <trkpt lat="49.87078" lon="2.13203">
        <ele>115.1</ele>
        <time>2013-10-27T10:25:13Z</time>
      </trkpt>
      <trkpt lat="49.87085" lon="2.13201">
        <ele>114.7</ele>
        <time>2013-10-27T10:25:17Z</time>
      </trkpt>
      <trkpt lat="49.87094" lon="2.13219">
        <ele>114.1</ele>
        <time>2013-10-27T10:25:24Z</time>
      </trkpt>
      <trkpt lat="49.87107" lon="2.13228">
        <ele>113.2</ele>
        <time>2013-10-27T10:25:34Z</time>
      </trkpt>
      <trkpt lat="49.87121" lon="2.13223">
        <ele>112.2</ele>
        <time>2013-10-27T10:25:46Z</time>
      </trkpt>
      <trkpt lat="49.87135" lon="2.13229">
        <ele>111.2</ele>
        <time>2013-10-27T10:25:57Z</time>
      </trkpt>
      <trkpt lat="49.87148" lon="2.13221">
        <ele>110.2</ele>
        <time>2013-10-27T10:26:08Z</time>
      </trkpt>
      <trkpt lat="49.87162" lon="2.13216">
        <ele>108.4</ele>
        <time>2013-10-27T10:26:17Z</time>
      </trkpt>
      <trkpt lat="49.87176" lon="2.13223">
        <ele>114</ele>
        <time>2013-10-27T10:26:27Z</time>
      </trkpt>
      <trkpt lat="49.8719" lon="2.1322">
        <ele>116.8</ele>
        <time>2013-10-27T10:26:39Z</time>
      </trkpt>
      <trkpt lat="49.87203" lon="2.13216">
        <ele>118.4</ele>
        <time>2013-10-27T10:26:45Z</time>
      </trkpt>
      <trkpt lat="49.87218" lon="2.13211">
        <ele>121.4</ele>
        <time>2013-10-27T10:26:52Z</time>
      </trkpt>
      <trkpt lat="49.87234" lon="2.132">
        <ele>122.8</ele>
        <time>2013-10-27T10:27:00Z</time>
      </trkpt>
      <trkpt lat="49.87248" lon="2.13199">
        <ele>126.5</ele>
        <time>2013-10-27T10:27:12Z</time>
      </trkpt>
      <trkpt lat="49.87257" lon="2.13206">
        <ele>125.7</ele>
        <time>2013-10-27T10:27:22Z</time>
      </trkpt>
      <trkpt lat="49.87257" lon="2.1321">
        <ele>125.2</ele>
        <time>2013-10-27T10:27:23Z</time>
      </trkpt>
      <trkpt lat="49.87259" lon="2.13209">
        <ele>124.8</ele>
        <time>2013-10-27T10:27:24Z</time>
      </trkpt>
      <trkpt lat="49.87258" lon="2.13214">
        <ele>124.3</ele>
        <time>2013-10-27T10:27:25Z</time>
      </trkpt>
      <trkpt lat="49.8726" lon="2.13214">
        <ele>123.9</ele>
        <time>2013-10-27T10:27:26Z</time>
      </trkpt>
      <trkpt lat="49.8727" lon="2.1323">
        <ele>115.6</ele>
        <time>2013-10-27T10:27:41Z</time>
      </trkpt>
      <trkpt lat="49.87284" lon="2.13232">
        <ele>113.7</ele>
        <time>2013-10-27T10:27:52Z</time>
      </trkpt>
      <trkpt lat="49.87299" lon="2.13226">
        <ele>114</ele>
        <time>2013-10-27T10:28:00Z</time>
      </trkpt>
      <trkpt lat="49.87303" lon="2.13224">
        <ele>114.5</ele>
        <time>2013-10-27T10:28:02Z</time>
      </trkpt>
      <trkpt lat="49.87308" lon="2.13235">
        <ele>114.5</ele>
        <time>2013-10-27T10:28:11Z</time>
      </trkpt>
      <trkpt lat="49.87317" lon="2.13238">
        <ele>111.5</ele>
        <time>2013-10-27T10:28:18Z</time>
      </trkpt>
      <trkpt lat="49.87331" lon="2.13234">
        <ele>109.5</ele>
        <time>2013-10-27T10:28:27Z</time>
      </trkpt>
      <trkpt lat="49.87345" lon="2.13234">
        <ele>111.9</ele>
        <time>2013-10-27T10:28:37Z</time>
      </trkpt>
      <trkpt lat="49.8736" lon="2.13234">
        <ele>110</ele>
        <time>2013-10-27T10:28:47Z</time>
      </trkpt>
      <trkpt lat="49.87374" lon="2.13233">
        <ele>108</ele>
        <time>2013-10-27T10:28:58Z</time>
      </trkpt>
      <trkpt lat="49.87388" lon="2.13228">
        <ele>107.1</ele>
        <time>2013-10-27T10:29:13Z</time>
      </trkpt>
      <trkpt lat="49.87402" lon="2.13227">
        <ele>107.7</ele>
        <time>2013-10-27T10:29:21Z</time>
      </trkpt>
      <trkpt lat="49.87416" lon="2.13231">
        <ele>109.4</ele>
        <time>2013-10-27T10:29:35Z</time>
      </trkpt>
      <trkpt lat="49.87425" lon="2.13232">
        <ele>109.8</ele>
        <time>2013-10-27T10:29:39Z</time>
      </trkpt>
      <trkpt lat="49.87434" lon="2.13212">
        <ele>110.3</ele>
        <time>2013-10-27T10:29:43Z</time>
      </trkpt>
      <trkpt lat="49.87448" lon="2.13207">
        <ele>113.4</ele>
        <time>2013-10-27T10:29:53Z</time>
      </trkpt>
      <trkpt lat="49.8746" lon="2.13218">
        <ele>114.7</ele>
        <time>2013-10-27T10:30:02Z</time>
      </trkpt>
      <trkpt lat="49.87475" lon="2.13224">
        <ele>115.9</ele>
        <time>2013-10-27T10:30:14Z</time>
      </trkpt>
      <trkpt lat="49.8749" lon="2.13225">
        <ele>117</ele>
        <time>2013-10-27T10:30:25Z</time>
      </trkpt>
      <trkpt lat="49.87504" lon="2.1322">
        <ele>117.9</ele>
        <time>2013-10-27T10:30:33Z</time>
      </trkpt>
      <trkpt lat="49.87517" lon="2.1322">
        <ele>116.3</ele>
        <time>2013-10-27T10:30:44Z</time>
      </trkpt>
      <trkpt lat="49.87531" lon="2.13224">
        <ele>114.7</ele>
        <time>2013-10-27T10:30:55Z</time>
      </trkpt>
      <trkpt lat="49.87546" lon="2.13227">
        <ele>113.3</ele>
        <time>2013-10-27T10:31:05Z</time>
      </trkpt>
      <trkpt lat="49.8756" lon="2.13232">
        <ele>110.7</ele>
        <time>2013-10-27T10:31:16Z</time>
      </trkpt>
      <trkpt lat="49.87573" lon="2.13224">
        <ele>110</ele>
        <time>2013-10-27T10:31:30Z</time>
      </trkpt>
      <trkpt lat="49.87587" lon="2.13229">
        <ele>110.4</ele>
        <time>2013-10-27T10:31:39Z</time>
      </trkpt>
      <trkpt lat="49.87602" lon="2.13229">
        <ele>111.6</ele>
        <time>2013-10-27T10:31:50Z</time>
      </trkpt>
      <trkpt lat="49.87616" lon="2.13227">
        <ele>112.9</ele>
        <time>2013-10-27T10:32:02Z</time>
      </trkpt>
      <trkpt lat="49.87628" lon="2.13232">
        <ele>110.5</ele>
        <time>2013-10-27T10:32:23Z</time>
      </trkpt>
      <trkpt lat="49.87642" lon="2.13228">
        <ele>111.1</ele>
        <time>2013-10-27T10:32:32Z</time>
      </trkpt>
      <trkpt lat="49.87657" lon="2.13226">
        <ele>111.7</ele>
        <time>2013-10-27T10:32:42Z</time>
      </trkpt>
      <trkpt lat="49.87672" lon="2.13226">
        <ele>112.5</ele>
        <time>2013-10-27T10:32:55Z</time>
      </trkpt>
      <trkpt lat="49.87686" lon="2.1322">
        <ele>112.8</ele>
        <time>2013-10-27T10:33:05Z</time>
      </trkpt>
      <trkpt lat="49.87699" lon="2.13215">
        <ele>111.9</ele>
        <time>2013-10-27T10:33:16Z</time>
      </trkpt>
      <trkpt lat="49.87716" lon="2.13217">
        <ele>111.1</ele>
        <time>2013-10-27T10:33:25Z</time>
      </trkpt>
      <trkpt lat="49.87731" lon="2.13216">
        <ele>110.5</ele>
        <time>2013-10-27T10:33:32Z</time>
      </trkpt>
      <trkpt lat="49.87746" lon="2.13209">
        <ele>110.1</ele>
        <time>2013-10-27T10:33:37Z</time>
      </trkpt>
      <trkpt lat="49.87747" lon="2.13208">
        <ele>110</ele>
        <time>2013-10-27T10:33:38Z</time>
      </trkpt>
      <trkpt lat="49.87739" lon="2.13225">
        <ele>108.9</ele>
        <time>2013-10-27T10:33:51Z</time>
      </trkpt>
      <trkpt lat="49.87753" lon="2.13223">
        <ele>108.4</ele>
        <time>2013-10-27T10:33:57Z</time>
      </trkpt>
      <trkpt lat="49.87766" lon="2.13224">
        <ele>106.6</ele>
        <time>2013-10-27T10:34:08Z</time>
      </trkpt>
      <trkpt lat="49.87781" lon="2.1322">
        <ele>104.2</ele>
        <time>2013-10-27T10:34:18Z</time>
      </trkpt>
      <trkpt lat="49.87794" lon="2.13212">
        <ele>104.7</ele>
        <time>2013-10-27T10:34:25Z</time>
      </trkpt>
      <trkpt lat="49.87809" lon="2.13211">
        <ele>107</ele>
        <time>2013-10-27T10:34:36Z</time>
      </trkpt>
      <trkpt lat="49.87823" lon="2.13209">
        <ele>110.1</ele>
        <time>2013-10-27T10:34:50Z</time>
      </trkpt>
      <trkpt lat="49.87837" lon="2.13209">
        <ele>111.7</ele>
        <time>2013-10-27T10:35:03Z</time>
      </trkpt>
      <trkpt lat="49.87851" lon="2.13205">
        <ele>112.5</ele>
        <time>2013-10-27T10:35:11Z</time>
      </trkpt>
      <trkpt lat="49.87866" lon="2.13207">
        <ele>114</ele>
        <time>2013-10-27T10:35:23Z</time>
      </trkpt>
      <trkpt lat="49.87881" lon="2.13204">
        <ele>115.4</ele>
        <time>2013-10-27T10:35:33Z</time>
      </trkpt>
      <trkpt lat="49.87895" lon="2.13202">
        <ele>116.6</ele>
        <time>2013-10-27T10:35:41Z</time>
      </trkpt>
      <trkpt lat="49.87908" lon="2.1321">
        <ele>117</ele>
        <time>2013-10-27T10:35:53Z</time>
      </trkpt>
      <trkpt lat="49.87921" lon="2.13206">
        <ele>115.8</ele>
        <time>2013-10-27T10:36:03Z</time>
      </trkpt>
      <trkpt lat="49.87935" lon="2.13206">
        <ele>114.8</ele>
        <time>2013-10-27T10:36:15Z</time>
      </trkpt>
      <trkpt lat="49.87951" lon="2.13205">
        <ele>113.9</ele>
        <time>2013-10-27T10:36:27Z</time>
      </trkpt>
      <trkpt lat="49.87964" lon="2.13195">
        <ele>112.6</ele>
        <time>2013-10-27T10:36:43Z</time>
      </trkpt>
      <trkpt lat="49.87977" lon="2.13199">
        <ele>111.9</ele>
        <time>2013-10-27T10:36:53Z</time>
      </trkpt>
      <trkpt lat="49.88007" lon="2.13207">
        <ele>113.6</ele>
        <time>2013-10-27T10:37:22Z</time>
      </trkpt>
      <trkpt lat="49.88007" lon="2.13207">
        <ele>113.6</ele>
        <time>2013-10-27T10:38:11Z</time>
      </trkpt>
      <trkpt lat="49.88023" lon="2.13205">
        <ele>115.6</ele>
        <time>2013-10-27T10:38:14Z</time>
      </trkpt>
      <trkpt lat="49.88031" lon="2.13205">
        <ele>117.4</ele>
        <time>2013-10-27T10:38:24Z</time>
      </trkpt>
      <trkpt lat="49.88037" lon="2.13193">
        <ele>117.6</ele>
        <time>2013-10-27T10:38:37Z</time>
      </trkpt>
      <trkpt lat="49.88037" lon="2.13193">
        <ele>117.6</ele>
        <time>2013-10-27T10:39:18Z</time>
      </trkpt>
      <trkpt lat="49.88042" lon="2.13193">
        <ele>116.4</ele>
        <time>2013-10-27T10:39:19Z</time>
      </trkpt>
      <trkpt lat="49.8804" lon="2.13188">
        <ele>115.6</ele>
        <time>2013-10-27T10:39:25Z</time>
      </trkpt>
      <trkpt lat="49.88034" lon="2.13199">
        <ele>116.6</ele>
        <time>2013-10-27T10:39:31Z</time>
      </trkpt>
      <trkpt lat="49.88031" lon="2.13194">
        <ele>113.2</ele>
        <time>2013-10-27T10:39:44Z</time>
      </trkpt>
      <trkpt lat="49.88025" lon="2.13197">
        <ele>113</ele>
        <time>2013-10-27T10:39:56Z</time>
      </trkpt>
      <trkpt lat="49.88037" lon="2.13194">
        <ele>113.9</ele>
        <time>2013-10-27T10:40:06Z</time>
      </trkpt>
      <trkpt lat="49.88033" lon="2.13173">
        <ele>110.7</ele>
        <time>2013-10-27T10:40:28Z</time>
      </trkpt>
      <trkpt lat="49.88026" lon="2.13155">
        <ele>109.4</ele>
        <time>2013-10-27T10:40:36Z</time>
      </trkpt>
      <trkpt lat="49.88019" lon="2.13137">
        <ele>110.1</ele>
        <time>2013-10-27T10:41:05Z</time>
      </trkpt>
      <trkpt lat="49.88015" lon="2.13114">
        <ele>111.2</ele>
        <time>2013-10-27T10:41:15Z</time>
      </trkpt>
      <trkpt lat="49.8801" lon="2.13092">
        <ele>111.8</ele>
        <time>2013-10-27T10:41:20Z</time>
      </trkpt>
      <trkpt lat="49.88003" lon="2.13073">
        <ele>112.5</ele>
        <time>2013-10-27T10:41:25Z</time>
      </trkpt>
      <trkpt lat="49.87997" lon="2.13053">
        <ele>114</ele>
        <time>2013-10-27T10:41:34Z</time>
      </trkpt>
      <trkpt lat="49.87991" lon="2.13033">
        <ele>115.4</ele>
        <time>2013-10-27T10:41:42Z</time>
      </trkpt>
      <trkpt lat="49.87984" lon="2.13014">
        <ele>118.6</ele>
        <time>2013-10-27T10:41:57Z</time>
      </trkpt>
      <trkpt lat="49.87978" lon="2.12995">
        <ele>118.1</ele>
        <time>2013-10-27T10:42:06Z</time>
      </trkpt>
      <trkpt lat="49.87977" lon="2.12974">
        <ele>117.1</ele>
        <time>2013-10-27T10:42:23Z</time>
      </trkpt>
      <trkpt lat="49.87976" lon="2.12952">
        <ele>116.7</ele>
        <time>2013-10-27T10:42:31Z</time>
      </trkpt>
      <trkpt lat="49.87973" lon="2.12931">
        <ele>116.2</ele>
        <time>2013-10-27T10:42:40Z</time>
      </trkpt>
      <trkpt lat="49.87971" lon="2.12909">
        <ele>115.2</ele>
        <time>2013-10-27T10:42:56Z</time>
      </trkpt>
      <trkpt lat="49.87966" lon="2.12888">
        <ele>114.7</ele>
        <time>2013-10-27T10:43:06Z</time>
      </trkpt>
      <trkpt lat="49.87969" lon="2.12867">
        <ele>114.1</ele>
        <time>2013-10-27T10:43:17Z</time>
      </trkpt>
      <trkpt lat="49.87967" lon="2.12846">
        <ele>113.3</ele>
        <time>2013-10-27T10:43:31Z</time>
      </trkpt>
      <trkpt lat="49.87962" lon="2.12826">
        <ele>112.6</ele>
        <time>2013-10-27T10:43:43Z</time>
      </trkpt>
      <trkpt lat="49.87965" lon="2.12804">
        <ele>112.1</ele>
        <time>2013-10-27T10:43:52Z</time>
      </trkpt>
      <trkpt lat="49.87972" lon="2.12786">
        <ele>111.6</ele>
        <time>2013-10-27T10:44:00Z</time>
      </trkpt>
      <trkpt lat="49.87977" lon="2.12775">
        <ele>110.8</ele>
        <time>2013-10-27T10:44:14Z</time>
      </trkpt>
      <trkpt lat="49.87968" lon="2.12757">
        <ele>110.4</ele>
        <time>2013-10-27T10:44:21Z</time>
      </trkpt>
      <trkpt lat="49.87964" lon="2.12736">
        <ele>109.9</ele>
        <time>2013-10-27T10:44:31Z</time>
      </trkpt>
      <trkpt lat="49.87963" lon="2.12714">
        <ele>109.4</ele>
        <time>2013-10-27T10:44:40Z</time>
      </trkpt>
      <trkpt lat="49.87965" lon="2.12692">
        <ele>108.7</ele>
        <time>2013-10-27T10:44:51Z</time>
      </trkpt>
      <trkpt lat="49.87965" lon="2.1267">
        <ele>108.2</ele>
        <time>2013-10-27T10:45:01Z</time>
      </trkpt>
      <trkpt lat="49.87967" lon="2.12647">
        <ele>103.4</ele>
        <time>2013-10-27T10:45:12Z</time>
      </trkpt>
      <trkpt lat="49.8796" lon="2.12628">
        <ele>99.4</ele>
        <time>2013-10-27T10:45:24Z</time>
      </trkpt>
      <trkpt lat="49.87954" lon="2.1261">
        <ele>97.3</ele>
        <time>2013-10-27T10:45:30Z</time>
      </trkpt>
      <trkpt lat="49.87954" lon="2.12589">
        <ele>92.7</ele>
        <time>2013-10-27T10:45:41Z</time>
      </trkpt>
      <trkpt lat="49.87957" lon="2.12567">
        <ele>96</ele>
        <time>2013-10-27T10:45:54Z</time>
      </trkpt>
      <trkpt lat="49.87959" lon="2.12544">
        <ele>98.5</ele>
        <time>2013-10-27T10:46:05Z</time>
      </trkpt>
      <trkpt lat="49.87963" lon="2.12523">
        <ele>96.4</ele>
        <time>2013-10-27T10:46:18Z</time>
      </trkpt>
      <trkpt lat="49.8797" lon="2.12503">
        <ele>95.4</ele>
        <time>2013-10-27T10:46:28Z</time>
      </trkpt>
      <trkpt lat="49.87974" lon="2.12482">
        <ele>96.5</ele>
        <time>2013-10-27T10:46:41Z</time>
      </trkpt>
      <trkpt lat="49.8798" lon="2.12463">
        <ele>98</ele>
        <time>2013-10-27T10:46:57Z</time>
      </trkpt>
      <trkpt lat="49.87983" lon="2.1244">
        <ele>98.3</ele>
        <time>2013-10-27T10:47:06Z</time>
      </trkpt>
      <trkpt lat="49.8798" lon="2.12416">
        <ele>98.5</ele>
        <time>2013-10-27T10:47:14Z</time>
      </trkpt>
      <trkpt lat="49.87981" lon="2.12406">
        <ele>98.6</ele>
        <time>2013-10-27T10:47:17Z</time>
      </trkpt>
      <trkpt lat="49.87995" lon="2.124">
        <ele>98.9</ele>
        <time>2013-10-27T10:47:25Z</time>
      </trkpt>
      <trkpt lat="49.87997" lon="2.12377">
        <ele>99.3</ele>
        <time>2013-10-27T10:47:38Z</time>
      </trkpt>
      <trkpt lat="49.87994" lon="2.12355">
        <ele>99.5</ele>
        <time>2013-10-27T10:47:45Z</time>
      </trkpt>
      <trkpt lat="49.8799" lon="2.12333">
        <ele>99.8</ele>
        <time>2013-10-27T10:47:54Z</time>
      </trkpt>
      <trkpt lat="49.87991" lon="2.12313">
        <ele>100.1</ele>
        <time>2013-10-27T10:48:04Z</time>
      </trkpt>
      <trkpt lat="49.87982" lon="2.12293">
        <ele>100.4</ele>
        <time>2013-10-27T10:48:16Z</time>
      </trkpt>
      <trkpt lat="49.8797" lon="2.1228">
        <ele>100.7</ele>
        <time>2013-10-27T10:48:24Z</time>
      </trkpt>
      <trkpt lat="49.87962" lon="2.12264">
        <ele>101</ele>
        <time>2013-10-27T10:48:33Z</time>
      </trkpt>
      <trkpt lat="49.87973" lon="2.12249">
        <ele>96.5</ele>
        <time>2013-10-27T10:48:42Z</time>
      </trkpt>
      <trkpt lat="49.8797" lon="2.12228">
        <ele>93.8</ele>
        <time>2013-10-27T10:48:56Z</time>
      </trkpt>
      <trkpt lat="49.87967" lon="2.12206">
        <ele>93.4</ele>
        <time>2013-10-27T10:49:07Z</time>
      </trkpt>
      <trkpt lat="49.87959" lon="2.12186">
        <ele>93.1</ele>
        <time>2013-10-27T10:49:16Z</time>
      </trkpt>
      <trkpt lat="49.87953" lon="2.12167">
        <ele>92.7</ele>
        <time>2013-10-27T10:49:24Z</time>
      </trkpt>
      <trkpt lat="49.87946" lon="2.12145">
        <ele>92.1</ele>
        <time>2013-10-27T10:49:39Z</time>
      </trkpt>
      <trkpt lat="49.87939" lon="2.12126">
        <ele>91.5</ele>
        <time>2013-10-27T10:49:55Z</time>
      </trkpt>
      <trkpt lat="49.8793" lon="2.12107">
        <ele>91.1</ele>
        <time>2013-10-27T10:50:05Z</time>
      </trkpt>
      <trkpt lat="49.87932" lon="2.12085">
        <ele>92.8</ele>
        <time>2013-10-27T10:50:21Z</time>
      </trkpt>
      <trkpt lat="49.87934" lon="2.12073">
        <ele>94.1</ele>
        <time>2013-10-27T10:50:30Z</time>
      </trkpt>
      <trkpt lat="49.87923" lon="2.12055">
        <ele>94.7</ele>
        <time>2013-10-27T10:50:34Z</time>
      </trkpt>
      <trkpt lat="49.87913" lon="2.12036">
        <ele>95.2</ele>
        <time>2013-10-27T10:50:38Z</time>
      </trkpt>
      <trkpt lat="49.87904" lon="2.1202">
        <ele>96.1</ele>
        <time>2013-10-27T10:50:47Z</time>
      </trkpt>
      <trkpt lat="49.87897" lon="2.11999">
        <ele>97.3</ele>
        <time>2013-10-27T10:50:58Z</time>
      </trkpt>
      <trkpt lat="49.87894" lon="2.11978">
        <ele>98.2</ele>
        <time>2013-10-27T10:51:06Z</time>
      </trkpt>
      <trkpt lat="49.87888" lon="2.11958">
        <ele>98</ele>
        <time>2013-10-27T10:51:16Z</time>
      </trkpt>
      <trkpt lat="49.87881" lon="2.11939">
        <ele>98.6</ele>
        <time>2013-10-27T10:51:30Z</time>
      </trkpt>
      <trkpt lat="49.87882" lon="2.11917">
        <ele>99.5</ele>
        <time>2013-10-27T10:51:53Z</time>
      </trkpt>
      <trkpt lat="49.87877" lon="2.11896">
        <ele>100</ele>
        <time>2013-10-27T10:52:05Z</time>
      </trkpt>
      <trkpt lat="49.8787" lon="2.11877">
        <ele>100.5</ele>
        <time>2013-10-27T10:52:16Z</time>
      </trkpt>
      <trkpt lat="49.87867" lon="2.11855">
        <ele>100.9</ele>
        <time>2013-10-27T10:52:26Z</time>
      </trkpt>
      <trkpt lat="49.87859" lon="2.11839">
        <ele>101.4</ele>
        <time>2013-10-27T10:52:34Z</time>
      </trkpt>
      <trkpt lat="49.87852" lon="2.1182">
        <ele>102</ele>
        <time>2013-10-27T10:52:44Z</time>
      </trkpt>
      <trkpt lat="49.87846" lon="2.11802">
        <ele>102.6</ele>
        <time>2013-10-27T10:52:53Z</time>
      </trkpt>
      <trkpt lat="49.8784" lon="2.11781">
        <ele>103.4</ele>
        <time>2013-10-27T10:53:05Z</time>
      </trkpt>
      <trkpt lat="49.87839" lon="2.11759">
        <ele>104.4</ele>
        <time>2013-10-27T10:53:21Z</time>
      </trkpt>
      <trkpt lat="49.87831" lon="2.11742">
        <ele>104.9</ele>
        <time>2013-10-27T10:53:31Z</time>
      </trkpt>
      <trkpt lat="49.87829" lon="2.11732">
        <ele>103.6</ele>
        <time>2013-10-27T10:53:36Z</time>
      </trkpt>
      <trkpt lat="49.87832" lon="2.11736">
        <ele>101.5</ele>
        <time>2013-10-27T10:53:44Z</time>
      </trkpt>
      <trkpt lat="49.87824" lon="2.11718">
        <ele>98.6</ele>
        <time>2013-10-27T10:53:51Z</time>
      </trkpt>
      <trkpt lat="49.87815" lon="2.11701">
        <ele>98.7</ele>
        <time>2013-10-27T10:54:04Z</time>
      </trkpt>
      <trkpt lat="49.87809" lon="2.11681">
        <ele>99.7</ele>
        <time>2013-10-27T10:54:21Z</time>
      </trkpt>
      <trkpt lat="49.87802" lon="2.11663">
        <ele>100.2</ele>
        <time>2013-10-27T10:54:30Z</time>
      </trkpt>
      <trkpt lat="49.87795" lon="2.11645">
        <ele>100.9</ele>
        <time>2013-10-27T10:54:41Z</time>
      </trkpt>
      <trkpt lat="49.8779" lon="2.11625">
        <ele>100.9</ele>
        <time>2013-10-27T10:54:47Z</time>
      </trkpt>
      <trkpt lat="49.87782" lon="2.11608">
        <ele>100.6</ele>
        <time>2013-10-27T10:54:53Z</time>
      </trkpt>
      <trkpt lat="49.87774" lon="2.11586">
        <ele>100.4</ele>
        <time>2013-10-27T10:54:59Z</time>
      </trkpt>
      <trkpt lat="49.87769" lon="2.11559">
        <ele>100</ele>
        <time>2013-10-27T10:55:10Z</time>
      </trkpt>
      <trkpt lat="49.87769" lon="2.11537">
        <ele>98.9</ele>
        <time>2013-10-27T10:55:42Z</time>
      </trkpt>
      <trkpt lat="49.87763" lon="2.11515">
        <ele>98.3</ele>
        <time>2013-10-27T10:55:58Z</time>
      </trkpt>
      <trkpt lat="49.87764" lon="2.11494">
        <ele>98</ele>
        <time>2013-10-27T10:56:06Z</time>
      </trkpt>
      <trkpt lat="49.87762" lon="2.11472">
        <ele>97.7</ele>
        <time>2013-10-27T10:56:15Z</time>
      </trkpt>
      <trkpt lat="49.87747" lon="2.11427">
        <ele>101.2</ele>
        <time>2013-10-27T10:56:33Z</time>
      </trkpt>
      <trkpt lat="49.87747" lon="2.11427">
        <ele>101.2</ele>
        <time>2013-10-27T10:58:06Z</time>
      </trkpt>
      <trkpt lat="49.8774" lon="2.11401">
        <ele>105.2</ele>
        <time>2013-10-27T10:58:08Z</time>
      </trkpt>
      <trkpt lat="49.87739" lon="2.1138">
        <ele>106.5</ele>
        <time>2013-10-27T10:58:19Z</time>
      </trkpt>
      <trkpt lat="49.87734" lon="2.1136">
        <ele>107.4</ele>
        <time>2013-10-27T10:58:27Z</time>
      </trkpt>
      <trkpt lat="49.87729" lon="2.1134">
        <ele>108.1</ele>
        <time>2013-10-27T10:58:36Z</time>
      </trkpt>
      <trkpt lat="49.87724" lon="2.11321">
        <ele>108.3</ele>
        <time>2013-10-27T10:58:46Z</time>
      </trkpt>
      <trkpt lat="49.87721" lon="2.113">
        <ele>108.6</ele>
        <time>2013-10-27T10:58:57Z</time>
      </trkpt>
      <trkpt lat="49.87713" lon="2.11279">
        <ele>108.8</ele>
        <time>2013-10-27T10:59:06Z</time>
      </trkpt>
      <trkpt lat="49.87707" lon="2.1126">
        <ele>109</ele>
        <time>2013-10-27T10:59:15Z</time>
      </trkpt>
      <trkpt lat="49.877" lon="2.11241">
        <ele>109.2</ele>
        <time>2013-10-27T10:59:27Z</time>
      </trkpt>
      <trkpt lat="49.87694" lon="2.11221">
        <ele>109.5</ele>
        <time>2013-10-27T10:59:36Z</time>
      </trkpt>
      <trkpt lat="49.87691" lon="2.112">
        <ele>109.7</ele>
        <time>2013-10-27T10:59:47Z</time>
      </trkpt>
      <trkpt lat="49.87687" lon="2.1118">
        <ele>110</ele>
        <time>2013-10-27T10:59:58Z</time>
      </trkpt>
      <trkpt lat="49.87682" lon="2.11156">
        <ele>110.2</ele>
        <time>2013-10-27T11:00:09Z</time>
      </trkpt>
      <trkpt lat="49.8768" lon="2.1113">
        <ele>110.4</ele>
        <time>2013-10-27T11:00:19Z</time>
      </trkpt>
      <trkpt lat="49.87679" lon="2.11109">
        <ele>110.7</ele>
        <time>2013-10-27T11:00:33Z</time>
      </trkpt>
      <trkpt lat="49.87674" lon="2.11087">
        <ele>111.1</ele>
        <time>2013-10-27T11:00:45Z</time>
      </trkpt>
      <trkpt lat="49.87666" lon="2.11069">
        <ele>111.6</ele>
        <time>2013-10-27T11:00:53Z</time>
      </trkpt>
      <trkpt lat="49.87659" lon="2.11051">
        <ele>112.1</ele>
        <time>2013-10-27T11:01:01Z</time>
      </trkpt>
      <trkpt lat="49.87654" lon="2.1103">
        <ele>112.8</ele>
        <time>2013-10-27T11:01:12Z</time>
      </trkpt>
      <trkpt lat="49.87656" lon="2.11009">
        <ele>113.7</ele>
        <time>2013-10-27T11:01:26Z</time>
      </trkpt>
      <trkpt lat="49.87645" lon="2.10995">
        <ele>109.9</ele>
        <time>2013-10-27T11:01:49Z</time>
      </trkpt>
      <trkpt lat="49.87631" lon="2.10995">
        <ele>108.7</ele>
        <time>2013-10-27T11:01:56Z</time>
      </trkpt>
      <trkpt lat="49.87618" lon="2.11003">
        <ele>107.2</ele>
        <time>2013-10-27T11:02:05Z</time>
      </trkpt>
      <trkpt lat="49.87603" lon="2.11001">
        <ele>104.4</ele>
        <time>2013-10-27T11:02:14Z</time>
      </trkpt>
      <trkpt lat="49.8759" lon="2.11003">
        <ele>105</ele>
        <time>2013-10-27T11:02:24Z</time>
      </trkpt>
      <trkpt lat="49.87581" lon="2.10987">
        <ele>103.9</ele>
        <time>2013-10-27T11:02:31Z</time>
      </trkpt>
      <trkpt lat="49.87568" lon="2.10977">
        <ele>101.2</ele>
        <time>2013-10-27T11:02:42Z</time>
      </trkpt>
      <trkpt lat="49.87553" lon="2.10981">
        <ele>101.8</ele>
        <time>2013-10-27T11:02:52Z</time>
      </trkpt>
      <trkpt lat="49.8754" lon="2.10989">
        <ele>103.5</ele>
        <time>2013-10-27T11:03:01Z</time>
      </trkpt>
      <trkpt lat="49.87537" lon="2.10986">
        <ele>104.2</ele>
        <time>2013-10-27T11:03:03Z</time>
      </trkpt>
      <trkpt lat="49.87523" lon="2.10982">
        <ele>106.7</ele>
        <time>2013-10-27T11:03:11Z</time>
      </trkpt>
      <trkpt lat="49.87509" lon="2.10981">
        <ele>113.7</ele>
        <time>2013-10-27T11:03:22Z</time>
      </trkpt>
      <trkpt lat="49.87496" lon="2.10975">
        <ele>116.9</ele>
        <time>2013-10-27T11:03:32Z</time>
      </trkpt>
      <trkpt lat="49.87483" lon="2.10965">
        <ele>120.4</ele>
        <time>2013-10-27T11:03:43Z</time>
      </trkpt>
      <trkpt lat="49.87471" lon="2.10955">
        <ele>119.6</ele>
        <time>2013-10-27T11:03:54Z</time>
      </trkpt>
      <trkpt lat="49.8746" lon="2.10941">
        <ele>112.8</ele>
        <time>2013-10-27T11:04:05Z</time>
      </trkpt>
      <trkpt lat="49.8745" lon="2.10928">
        <ele>112.6</ele>
        <time>2013-10-27T11:04:17Z</time>
      </trkpt>
      <trkpt lat="49.87437" lon="2.10914">
        <ele>113.4</ele>
        <time>2013-10-27T11:04:27Z</time>
      </trkpt>
      <trkpt lat="49.8743" lon="2.10896">
        <ele>114.3</ele>
        <time>2013-10-27T11:04:37Z</time>
      </trkpt>
      <trkpt lat="49.87418" lon="2.10884">
        <ele>117.4</ele>
        <time>2013-10-27T11:04:51Z</time>
      </trkpt>
      <trkpt lat="49.87416" lon="2.10874">
        <ele>120.2</ele>
        <time>2013-10-27T11:04:57Z</time>
      </trkpt>
      <trkpt lat="49.87404" lon="2.10863">
        <ele>122.6</ele>
        <time>2013-10-27T11:05:06Z</time>
      </trkpt>
      <trkpt lat="49.87401" lon="2.1086">
        <ele>122</ele>
        <time>2013-10-27T11:05:10Z</time>
      </trkpt>
      <trkpt lat="49.87413" lon="2.10861">
        <ele>119.6</ele>
        <time>2013-10-27T11:05:19Z</time>
      </trkpt>
      <trkpt lat="49.8741" lon="2.10855">
        <ele>117.8</ele>
        <time>2013-10-27T11:05:26Z</time>
      </trkpt>
      <trkpt lat="49.87397" lon="2.10844">
        <ele>110.8</ele>
        <time>2013-10-27T11:05:49Z</time>
      </trkpt>
      <trkpt lat="49.87394" lon="2.10824">
        <ele>109.2</ele>
        <time>2013-10-27T11:06:02Z</time>
      </trkpt>
      <trkpt lat="49.87405" lon="2.10813">
        <ele>109.8</ele>
        <time>2013-10-27T11:06:15Z</time>
      </trkpt>
      <trkpt lat="49.87406" lon="2.10791">
        <ele>111.1</ele>
        <time>2013-10-27T11:06:34Z</time>
      </trkpt>
      <trkpt lat="49.87412" lon="2.10771">
        <ele>112.8</ele>
        <time>2013-10-27T11:06:49Z</time>
      </trkpt>
      <trkpt lat="49.87418" lon="2.10743">
        <ele>114.2</ele>
        <time>2013-10-27T11:07:00Z</time>
      </trkpt>
      <trkpt lat="49.87409" lon="2.10724">
        <ele>115.8</ele>
        <time>2013-10-27T11:07:09Z</time>
      </trkpt>
      <trkpt lat="49.87397" lon="2.10724">
        <ele>117.1</ele>
        <time>2013-10-27T11:07:20Z</time>
      </trkpt>
      <trkpt lat="49.87397" lon="2.10724">
        <ele>117.1</ele>
        <time>2013-10-27T11:13:48Z</time>
      </trkpt>
      <trkpt lat="49.87398" lon="2.10728">
        <ele>117.3</ele>
        <time>2013-10-27T11:13:53Z</time>
      </trkpt>
      <trkpt lat="49.87412" lon="2.10726">
        <ele>107.8</ele>
        <time>2013-10-27T11:14:25Z</time>
      </trkpt>
    </trkseg>
  </trk>
</gpx>